<?xml version="1.0" encoding="UTF-8" standalone="no" ?>
<gpx xmlns="http://www.topografix.com/GPX/1/1" xmlns:xsi="http://www.w3.org/2001/XMLSchema-instance" xsi:schemaLocation="http://www.topografix.com/GPX/1/1 http://www.topografix.com/GPX/1/1/gpx.xsd" version="1.1" creator="VisuGPX - https://www.visugpx.com">
  <metadata>
    <name>St Nizier - Tour Sans Venin - Coup de sabre</name>
    <desc><![CDATA[Combinaison de single track bien roulants]]></desc>
  </metadata>
  <trk>
    <name><![CDATA[St nizier-tour sans venin-coup de sabre]]></name>
    <desc><![CDATA[]]></desc>
    <trkseg>
      <trkpt lat="45.17052" lon="5.62807">
        <ele>1223</ele>
        <time>2011-06-15T06:49:18Z</time>
      </trkpt>
      <trkpt lat="45.17056" lon="5.62845">
        <ele>1224</ele>
        <time>2011-06-15T06:49:21Z</time>
      </trkpt>
      <trkpt lat="45.17058" lon="5.62856">
        <ele>1222</ele>
        <time>2011-06-15T06:49:22Z</time>
      </trkpt>
      <trkpt lat="45.17058" lon="5.6287">
        <ele>1222</ele>
        <time>2011-06-15T06:49:23Z</time>
      </trkpt>
      <trkpt lat="45.17057" lon="5.62879">
        <ele>1224</ele>
        <time>2011-06-15T06:49:24Z</time>
      </trkpt>
      <trkpt lat="45.17057" lon="5.62892">
        <ele>1225</ele>
        <time>2011-06-15T06:49:25Z</time>
      </trkpt>
      <trkpt lat="45.17058" lon="5.62904">
        <ele>1223</ele>
        <time>2011-06-15T06:49:26Z</time>
      </trkpt>
      <trkpt lat="45.17059" lon="5.62918">
        <ele>1221</ele>
        <time>2011-06-15T06:49:27Z</time>
      </trkpt>
      <trkpt lat="45.17063" lon="5.6293">
        <ele>1217</ele>
        <time>2011-06-15T06:49:28Z</time>
      </trkpt>
      <trkpt lat="45.17061" lon="5.62943">
        <ele>1219</ele>
        <time>2011-06-15T06:49:29Z</time>
      </trkpt>
      <trkpt lat="45.1706" lon="5.62956">
        <ele>1220</ele>
        <time>2011-06-15T06:49:30Z</time>
      </trkpt>
      <trkpt lat="45.1706" lon="5.62967">
        <ele>1220</ele>
        <time>2011-06-15T06:49:31Z</time>
      </trkpt>
      <trkpt lat="45.17062" lon="5.62978">
        <ele>1220</ele>
        <time>2011-06-15T06:49:32Z</time>
      </trkpt>
      <trkpt lat="45.17063" lon="5.62989">
        <ele>1221</ele>
        <time>2011-06-15T06:49:33Z</time>
      </trkpt>
      <trkpt lat="45.17071" lon="5.62997">
        <ele>1222</ele>
        <time>2011-06-15T06:49:34Z</time>
      </trkpt>
      <trkpt lat="45.17077" lon="5.63006">
        <ele>1222</ele>
        <time>2011-06-15T06:49:35Z</time>
      </trkpt>
      <trkpt lat="45.17084" lon="5.63025">
        <ele>1219</ele>
        <time>2011-06-15T06:49:36Z</time>
      </trkpt>
      <trkpt lat="45.1709" lon="5.63033">
        <ele>1221</ele>
        <time>2011-06-15T06:49:37Z</time>
      </trkpt>
      <trkpt lat="45.17097" lon="5.63041">
        <ele>1221</ele>
        <time>2011-06-15T06:49:38Z</time>
      </trkpt>
      <trkpt lat="45.17102" lon="5.63051">
        <ele>1222</ele>
        <time>2011-06-15T06:49:39Z</time>
      </trkpt>
      <trkpt lat="45.17107" lon="5.6306">
        <ele>1222</ele>
        <time>2011-06-15T06:49:40Z</time>
      </trkpt>
      <trkpt lat="45.17112" lon="5.63067">
        <ele>1221</ele>
        <time>2011-06-15T06:49:41Z</time>
      </trkpt>
      <trkpt lat="45.1712" lon="5.63072">
        <ele>1218</ele>
        <time>2011-06-15T06:49:42Z</time>
      </trkpt>
      <trkpt lat="45.17126" lon="5.63075">
        <ele>1218</ele>
        <time>2011-06-15T06:49:43Z</time>
      </trkpt>
      <trkpt lat="45.17132" lon="5.63078">
        <ele>1218</ele>
        <time>2011-06-15T06:49:44Z</time>
      </trkpt>
      <trkpt lat="45.17138" lon="5.63082">
        <ele>1218</ele>
        <time>2011-06-15T06:49:45Z</time>
      </trkpt>
      <trkpt lat="45.17143" lon="5.63086">
        <ele>1218</ele>
        <time>2011-06-15T06:49:46Z</time>
      </trkpt>
      <trkpt lat="45.17148" lon="5.6309">
        <ele>1217</ele>
        <time>2011-06-15T06:49:47Z</time>
      </trkpt>
      <trkpt lat="45.17153" lon="5.63097">
        <ele>1217</ele>
        <time>2011-06-15T06:49:48Z</time>
      </trkpt>
      <trkpt lat="45.1716" lon="5.63107">
        <ele>1216</ele>
        <time>2011-06-15T06:49:49Z</time>
      </trkpt>
      <trkpt lat="45.17165" lon="5.63113">
        <ele>1215</ele>
        <time>2011-06-15T06:49:50Z</time>
      </trkpt>
      <trkpt lat="45.17169" lon="5.63121">
        <ele>1215</ele>
        <time>2011-06-15T06:49:51Z</time>
      </trkpt>
      <trkpt lat="45.17172" lon="5.63129">
        <ele>1215</ele>
        <time>2011-06-15T06:49:52Z</time>
      </trkpt>
      <trkpt lat="45.17175" lon="5.63138">
        <ele>1215</ele>
        <time>2011-06-15T06:49:53Z</time>
      </trkpt>
      <trkpt lat="45.17177" lon="5.63145">
        <ele>1215</ele>
        <time>2011-06-15T06:49:54Z</time>
      </trkpt>
      <trkpt lat="45.1718" lon="5.63155">
        <ele>1215</ele>
        <time>2011-06-15T06:49:55Z</time>
      </trkpt>
      <trkpt lat="45.17181" lon="5.63165">
        <ele>1215</ele>
        <time>2011-06-15T06:49:56Z</time>
      </trkpt>
      <trkpt lat="45.17182" lon="5.63175">
        <ele>1214</ele>
        <time>2011-06-15T06:49:57Z</time>
      </trkpt>
      <trkpt lat="45.17181" lon="5.63186">
        <ele>1213</ele>
        <time>2011-06-15T06:49:58Z</time>
      </trkpt>
      <trkpt lat="45.17182" lon="5.63196">
        <ele>1213</ele>
        <time>2011-06-15T06:49:59Z</time>
      </trkpt>
      <trkpt lat="45.17183" lon="5.63206">
        <ele>1213</ele>
        <time>2011-06-15T06:50:00Z</time>
      </trkpt>
      <trkpt lat="45.17183" lon="5.63214">
        <ele>1213</ele>
        <time>2011-06-15T06:50:01Z</time>
      </trkpt>
      <trkpt lat="45.17182" lon="5.63224">
        <ele>1213</ele>
        <time>2011-06-15T06:50:02Z</time>
      </trkpt>
      <trkpt lat="45.17181" lon="5.63232">
        <ele>1214</ele>
        <time>2011-06-15T06:50:03Z</time>
      </trkpt>
      <trkpt lat="45.17181" lon="5.6324">
        <ele>1213</ele>
        <time>2011-06-15T06:50:04Z</time>
      </trkpt>
      <trkpt lat="45.1718" lon="5.63249">
        <ele>1214</ele>
        <time>2011-06-15T06:50:05Z</time>
      </trkpt>
      <trkpt lat="45.17179" lon="5.6326">
        <ele>1213</ele>
        <time>2011-06-15T06:50:06Z</time>
      </trkpt>
      <trkpt lat="45.17178" lon="5.63272">
        <ele>1212</ele>
        <time>2011-06-15T06:50:07Z</time>
      </trkpt>
      <trkpt lat="45.17178" lon="5.63284">
        <ele>1212</ele>
        <time>2011-06-15T06:50:08Z</time>
      </trkpt>
      <trkpt lat="45.17178" lon="5.63297">
        <ele>1212</ele>
        <time>2011-06-15T06:50:09Z</time>
      </trkpt>
      <trkpt lat="45.17177" lon="5.63309">
        <ele>1211</ele>
        <time>2011-06-15T06:50:10Z</time>
      </trkpt>
      <trkpt lat="45.17176" lon="5.63321">
        <ele>1211</ele>
        <time>2011-06-15T06:50:11Z</time>
      </trkpt>
      <trkpt lat="45.17176" lon="5.63334">
        <ele>1212</ele>
        <time>2011-06-15T06:50:12Z</time>
      </trkpt>
      <trkpt lat="45.17177" lon="5.63346">
        <ele>1212</ele>
        <time>2011-06-15T06:50:13Z</time>
      </trkpt>
      <trkpt lat="45.1718" lon="5.63356">
        <ele>1212</ele>
        <time>2011-06-15T06:50:14Z</time>
      </trkpt>
      <trkpt lat="45.17182" lon="5.63368">
        <ele>1212</ele>
        <time>2011-06-15T06:50:15Z</time>
      </trkpt>
      <trkpt lat="45.17184" lon="5.63383">
        <ele>1213</ele>
        <time>2011-06-15T06:50:16Z</time>
      </trkpt>
      <trkpt lat="45.17187" lon="5.63395">
        <ele>1213</ele>
        <time>2011-06-15T06:50:17Z</time>
      </trkpt>
      <trkpt lat="45.17191" lon="5.63406">
        <ele>1213</ele>
        <time>2011-06-15T06:50:18Z</time>
      </trkpt>
      <trkpt lat="45.17193" lon="5.63419">
        <ele>1212</ele>
        <time>2011-06-15T06:50:19Z</time>
      </trkpt>
      <trkpt lat="45.17196" lon="5.63432">
        <ele>1212</ele>
        <time>2011-06-15T06:50:20Z</time>
      </trkpt>
      <trkpt lat="45.17197" lon="5.63447">
        <ele>1212</ele>
        <time>2011-06-15T06:50:21Z</time>
      </trkpt>
      <trkpt lat="45.17198" lon="5.63459">
        <ele>1212</ele>
        <time>2011-06-15T06:50:22Z</time>
      </trkpt>
      <trkpt lat="45.17199" lon="5.63471">
        <ele>1211</ele>
        <time>2011-06-15T06:50:23Z</time>
      </trkpt>
      <trkpt lat="45.17196" lon="5.63481">
        <ele>1211</ele>
        <time>2011-06-15T06:50:24Z</time>
      </trkpt>
      <trkpt lat="45.17195" lon="5.63499">
        <ele>1211</ele>
        <time>2011-06-15T06:50:25Z</time>
      </trkpt>
      <trkpt lat="45.17192" lon="5.6351">
        <ele>1210</ele>
        <time>2011-06-15T06:50:26Z</time>
      </trkpt>
      <trkpt lat="45.17188" lon="5.63518">
        <ele>1210</ele>
        <time>2011-06-15T06:50:27Z</time>
      </trkpt>
      <trkpt lat="45.17184" lon="5.63525">
        <ele>1210</ele>
        <time>2011-06-15T06:50:28Z</time>
      </trkpt>
      <trkpt lat="45.17182" lon="5.63533">
        <ele>1209</ele>
        <time>2011-06-15T06:50:29Z</time>
      </trkpt>
      <trkpt lat="45.17176" lon="5.63539">
        <ele>1210</ele>
        <time>2011-06-15T06:50:31Z</time>
      </trkpt>
      <trkpt lat="45.17169" lon="5.63546">
        <ele>1209</ele>
        <time>2011-06-15T06:50:33Z</time>
      </trkpt>
      <trkpt lat="45.17163" lon="5.63545">
        <ele>1209</ele>
        <time>2011-06-15T06:50:34Z</time>
      </trkpt>
      <trkpt lat="45.17157" lon="5.63546">
        <ele>1210</ele>
        <time>2011-06-15T06:50:35Z</time>
      </trkpt>
      <trkpt lat="45.17152" lon="5.63548">
        <ele>1210</ele>
        <time>2011-06-15T06:50:36Z</time>
      </trkpt>
      <trkpt lat="45.17146" lon="5.63549">
        <ele>1210</ele>
        <time>2011-06-15T06:50:37Z</time>
      </trkpt>
      <trkpt lat="45.17139" lon="5.63551">
        <ele>1209</ele>
        <time>2011-06-15T06:50:38Z</time>
      </trkpt>
      <trkpt lat="45.17132" lon="5.63554">
        <ele>1209</ele>
        <time>2011-06-15T06:50:39Z</time>
      </trkpt>
      <trkpt lat="45.17125" lon="5.63554">
        <ele>1209</ele>
        <time>2011-06-15T06:50:40Z</time>
      </trkpt>
      <trkpt lat="45.17118" lon="5.63556">
        <ele>1209</ele>
        <time>2011-06-15T06:50:41Z</time>
      </trkpt>
      <trkpt lat="45.17111" lon="5.63558">
        <ele>1209</ele>
        <time>2011-06-15T06:50:42Z</time>
      </trkpt>
      <trkpt lat="45.17105" lon="5.63557">
        <ele>1209</ele>
        <time>2011-06-15T06:50:43Z</time>
      </trkpt>
      <trkpt lat="45.17097" lon="5.6356">
        <ele>1208</ele>
        <time>2011-06-15T06:50:44Z</time>
      </trkpt>
      <trkpt lat="45.1709" lon="5.6356">
        <ele>1209</ele>
        <time>2011-06-15T06:50:45Z</time>
      </trkpt>
      <trkpt lat="45.17084" lon="5.63563">
        <ele>1208</ele>
        <time>2011-06-15T06:50:46Z</time>
      </trkpt>
      <trkpt lat="45.17077" lon="5.63566">
        <ele>1208</ele>
        <time>2011-06-15T06:50:47Z</time>
      </trkpt>
      <trkpt lat="45.17069" lon="5.63571">
        <ele>1208</ele>
        <time>2011-06-15T06:50:48Z</time>
      </trkpt>
      <trkpt lat="45.17062" lon="5.63576">
        <ele>1208</ele>
        <time>2011-06-15T06:50:49Z</time>
      </trkpt>
      <trkpt lat="45.17057" lon="5.63581">
        <ele>1208</ele>
        <time>2011-06-15T06:50:50Z</time>
      </trkpt>
      <trkpt lat="45.17057" lon="5.63589">
        <ele>1208</ele>
        <time>2011-06-15T06:50:51Z</time>
      </trkpt>
      <trkpt lat="45.17053" lon="5.63594">
        <ele>1208</ele>
        <time>2011-06-15T06:50:52Z</time>
      </trkpt>
      <trkpt lat="45.17049" lon="5.63603">
        <ele>1208</ele>
        <time>2011-06-15T06:50:53Z</time>
      </trkpt>
      <trkpt lat="45.17046" lon="5.63609">
        <ele>1208</ele>
        <time>2011-06-15T06:50:54Z</time>
      </trkpt>
      <trkpt lat="45.17042" lon="5.63613">
        <ele>1208</ele>
        <time>2011-06-15T06:50:55Z</time>
      </trkpt>
      <trkpt lat="45.17036" lon="5.63623">
        <ele>1207</ele>
        <time>2011-06-15T06:50:56Z</time>
      </trkpt>
      <trkpt lat="45.17031" lon="5.63633">
        <ele>1207</ele>
        <time>2011-06-15T06:50:57Z</time>
      </trkpt>
      <trkpt lat="45.17021" lon="5.63644">
        <ele>1207</ele>
        <time>2011-06-15T06:50:58Z</time>
      </trkpt>
      <trkpt lat="45.17016" lon="5.63652">
        <ele>1207</ele>
        <time>2011-06-15T06:50:59Z</time>
      </trkpt>
      <trkpt lat="45.17012" lon="5.6366">
        <ele>1207</ele>
        <time>2011-06-15T06:51:00Z</time>
      </trkpt>
      <trkpt lat="45.17005" lon="5.63667">
        <ele>1207</ele>
        <time>2011-06-15T06:51:01Z</time>
      </trkpt>
      <trkpt lat="45.17002" lon="5.63676">
        <ele>1206</ele>
        <time>2011-06-15T06:51:02Z</time>
      </trkpt>
      <trkpt lat="45.16994" lon="5.63681">
        <ele>1207</ele>
        <time>2011-06-15T06:51:03Z</time>
      </trkpt>
      <trkpt lat="45.16986" lon="5.63686">
        <ele>1207</ele>
        <time>2011-06-15T06:51:04Z</time>
      </trkpt>
      <trkpt lat="45.1698" lon="5.6369">
        <ele>1206</ele>
        <time>2011-06-15T06:51:05Z</time>
      </trkpt>
      <trkpt lat="45.16974" lon="5.63694">
        <ele>1206</ele>
        <time>2011-06-15T06:51:06Z</time>
      </trkpt>
      <trkpt lat="45.16966" lon="5.63699">
        <ele>1206</ele>
        <time>2011-06-15T06:51:07Z</time>
      </trkpt>
      <trkpt lat="45.16957" lon="5.63705">
        <ele>1206</ele>
        <time>2011-06-15T06:51:08Z</time>
      </trkpt>
      <trkpt lat="45.16946" lon="5.6371">
        <ele>1206</ele>
        <time>2011-06-15T06:51:09Z</time>
      </trkpt>
      <trkpt lat="45.16937" lon="5.63714">
        <ele>1205</ele>
        <time>2011-06-15T06:51:10Z</time>
      </trkpt>
      <trkpt lat="45.16932" lon="5.63717">
        <ele>1205</ele>
        <time>2011-06-15T06:51:11Z</time>
      </trkpt>
      <trkpt lat="45.16925" lon="5.63722">
        <ele>1205</ele>
        <time>2011-06-15T06:51:12Z</time>
      </trkpt>
      <trkpt lat="45.16919" lon="5.63726">
        <ele>1205</ele>
        <time>2011-06-15T06:51:13Z</time>
      </trkpt>
      <trkpt lat="45.16913" lon="5.6373">
        <ele>1205</ele>
        <time>2011-06-15T06:51:14Z</time>
      </trkpt>
      <trkpt lat="45.16904" lon="5.63735">
        <ele>1205</ele>
        <time>2011-06-15T06:51:15Z</time>
      </trkpt>
      <trkpt lat="45.16897" lon="5.6374">
        <ele>1205</ele>
        <time>2011-06-15T06:51:16Z</time>
      </trkpt>
      <trkpt lat="45.16889" lon="5.63744">
        <ele>1204</ele>
        <time>2011-06-15T06:51:17Z</time>
      </trkpt>
      <trkpt lat="45.16869" lon="5.63753">
        <ele>1205</ele>
        <time>2011-06-15T06:51:20Z</time>
      </trkpt>
      <trkpt lat="45.16861" lon="5.63757">
        <ele>1204</ele>
        <time>2011-06-15T06:51:23Z</time>
      </trkpt>
      <trkpt lat="45.16855" lon="5.63761">
        <ele>1204</ele>
        <time>2011-06-15T06:51:28Z</time>
      </trkpt>
      <trkpt lat="45.16853" lon="5.63766">
        <ele>1204</ele>
        <time>2011-06-15T06:51:35Z</time>
      </trkpt>
      <trkpt lat="45.16854" lon="5.63772">
        <ele>1204</ele>
        <time>2011-06-15T06:51:37Z</time>
      </trkpt>
      <trkpt lat="45.1686" lon="5.63787">
        <ele>1203</ele>
        <time>2011-06-15T06:51:44Z</time>
      </trkpt>
      <trkpt lat="45.16862" lon="5.63793">
        <ele>1203</ele>
        <time>2011-06-15T06:51:46Z</time>
      </trkpt>
      <trkpt lat="45.16866" lon="5.63801">
        <ele>1203</ele>
        <time>2011-06-15T06:51:49Z</time>
      </trkpt>
      <trkpt lat="45.16869" lon="5.63808">
        <ele>1202</ele>
        <time>2011-06-15T06:51:53Z</time>
      </trkpt>
      <trkpt lat="45.16873" lon="5.63812">
        <ele>1202</ele>
        <time>2011-06-15T06:51:55Z</time>
      </trkpt>
      <trkpt lat="45.16874" lon="5.63818">
        <ele>1202</ele>
        <time>2011-06-15T06:51:57Z</time>
      </trkpt>
      <trkpt lat="45.16873" lon="5.63825">
        <ele>1201</ele>
        <time>2011-06-15T06:51:58Z</time>
      </trkpt>
      <trkpt lat="45.16874" lon="5.63837">
        <ele>1202</ele>
        <time>2011-06-15T06:52:00Z</time>
      </trkpt>
      <trkpt lat="45.16876" lon="5.63847">
        <ele>1201</ele>
        <time>2011-06-15T06:52:02Z</time>
      </trkpt>
      <trkpt lat="45.16875" lon="5.63854">
        <ele>1201</ele>
        <time>2011-06-15T06:52:05Z</time>
      </trkpt>
      <trkpt lat="45.16875" lon="5.63861">
        <ele>1201</ele>
        <time>2011-06-15T06:52:07Z</time>
      </trkpt>
      <trkpt lat="45.16873" lon="5.63868">
        <ele>1201</ele>
        <time>2011-06-15T06:52:10Z</time>
      </trkpt>
      <trkpt lat="45.16871" lon="5.63876">
        <ele>1200</ele>
        <time>2011-06-15T06:52:13Z</time>
      </trkpt>
      <trkpt lat="45.16865" lon="5.63883">
        <ele>1199</ele>
        <time>2011-06-15T06:52:14Z</time>
      </trkpt>
      <trkpt lat="45.16862" lon="5.63898">
        <ele>1198</ele>
        <time>2011-06-15T06:52:16Z</time>
      </trkpt>
      <trkpt lat="45.16858" lon="5.63902">
        <ele>1195</ele>
        <time>2011-06-15T06:52:18Z</time>
      </trkpt>
      <trkpt lat="45.16853" lon="5.63906">
        <ele>1190</ele>
        <time>2011-06-15T06:52:20Z</time>
      </trkpt>
      <trkpt lat="45.16845" lon="5.6391">
        <ele>1189</ele>
        <time>2011-06-15T06:52:22Z</time>
      </trkpt>
      <trkpt lat="45.1684" lon="5.63913">
        <ele>1184</ele>
        <time>2011-06-15T06:52:24Z</time>
      </trkpt>
      <trkpt lat="45.16838" lon="5.63922">
        <ele>1184</ele>
        <time>2011-06-15T06:52:25Z</time>
      </trkpt>
      <trkpt lat="45.16835" lon="5.63928">
        <ele>1184</ele>
        <time>2011-06-15T06:52:26Z</time>
      </trkpt>
      <trkpt lat="45.16834" lon="5.63936">
        <ele>1184</ele>
        <time>2011-06-15T06:52:27Z</time>
      </trkpt>
      <trkpt lat="45.16834" lon="5.63945">
        <ele>1182</ele>
        <time>2011-06-15T06:52:29Z</time>
      </trkpt>
      <trkpt lat="45.16832" lon="5.63953">
        <ele>1181</ele>
        <time>2011-06-15T06:52:31Z</time>
      </trkpt>
      <trkpt lat="45.16829" lon="5.63961">
        <ele>1181</ele>
        <time>2011-06-15T06:52:33Z</time>
      </trkpt>
      <trkpt lat="45.16824" lon="5.63967">
        <ele>1180</ele>
        <time>2011-06-15T06:52:35Z</time>
      </trkpt>
      <trkpt lat="45.16821" lon="5.63972">
        <ele>1180</ele>
        <time>2011-06-15T06:52:37Z</time>
      </trkpt>
      <trkpt lat="45.16822" lon="5.63985">
        <ele>1180</ele>
        <time>2011-06-15T06:52:39Z</time>
      </trkpt>
      <trkpt lat="45.16824" lon="5.63993">
        <ele>1179</ele>
        <time>2011-06-15T06:52:40Z</time>
      </trkpt>
      <trkpt lat="45.16824" lon="5.64002">
        <ele>1178</ele>
        <time>2011-06-15T06:52:42Z</time>
      </trkpt>
      <trkpt lat="45.16827" lon="5.64013">
        <ele>1178</ele>
        <time>2011-06-15T06:52:44Z</time>
      </trkpt>
      <trkpt lat="45.16827" lon="5.6402">
        <ele>1178</ele>
        <time>2011-06-15T06:52:46Z</time>
      </trkpt>
      <trkpt lat="45.1683" lon="5.64028">
        <ele>1177</ele>
        <time>2011-06-15T06:52:50Z</time>
      </trkpt>
      <trkpt lat="45.16836" lon="5.64032">
        <ele>1177</ele>
        <time>2011-06-15T06:52:52Z</time>
      </trkpt>
      <trkpt lat="45.16836" lon="5.64042">
        <ele>1177</ele>
        <time>2011-06-15T06:52:55Z</time>
      </trkpt>
      <trkpt lat="45.16831" lon="5.64051">
        <ele>1177</ele>
        <time>2011-06-15T06:52:58Z</time>
      </trkpt>
      <trkpt lat="45.16829" lon="5.64059">
        <ele>1177</ele>
        <time>2011-06-15T06:53:00Z</time>
      </trkpt>
      <trkpt lat="45.16824" lon="5.64068">
        <ele>1177</ele>
        <time>2011-06-15T06:53:02Z</time>
      </trkpt>
      <trkpt lat="45.16819" lon="5.64068">
        <ele>1177</ele>
        <time>2011-06-15T06:53:03Z</time>
      </trkpt>
      <trkpt lat="45.16815" lon="5.64072">
        <ele>1177</ele>
        <time>2011-06-15T06:53:04Z</time>
      </trkpt>
      <trkpt lat="45.16809" lon="5.64077">
        <ele>1177</ele>
        <time>2011-06-15T06:53:06Z</time>
      </trkpt>
      <trkpt lat="45.16806" lon="5.64081">
        <ele>1177</ele>
        <time>2011-06-15T06:53:07Z</time>
      </trkpt>
      <trkpt lat="45.168" lon="5.64082">
        <ele>1177</ele>
        <time>2011-06-15T06:53:08Z</time>
      </trkpt>
      <trkpt lat="45.16792" lon="5.64089">
        <ele>1177</ele>
        <time>2011-06-15T06:53:10Z</time>
      </trkpt>
      <trkpt lat="45.16782" lon="5.64094">
        <ele>1177</ele>
        <time>2011-06-15T06:53:12Z</time>
      </trkpt>
      <trkpt lat="45.16777" lon="5.64098">
        <ele>1176</ele>
        <time>2011-06-15T06:53:13Z</time>
      </trkpt>
      <trkpt lat="45.16771" lon="5.64105">
        <ele>1177</ele>
        <time>2011-06-15T06:53:14Z</time>
      </trkpt>
      <trkpt lat="45.16766" lon="5.64112">
        <ele>1177</ele>
        <time>2011-06-15T06:53:15Z</time>
      </trkpt>
      <trkpt lat="45.1676" lon="5.64116">
        <ele>1177</ele>
        <time>2011-06-15T06:53:16Z</time>
      </trkpt>
      <trkpt lat="45.16757" lon="5.64122">
        <ele>1177</ele>
        <time>2011-06-15T06:53:17Z</time>
      </trkpt>
      <trkpt lat="45.1675" lon="5.64125">
        <ele>1177</ele>
        <time>2011-06-15T06:53:18Z</time>
      </trkpt>
      <trkpt lat="45.1674" lon="5.64132">
        <ele>1176</ele>
        <time>2011-06-15T06:53:19Z</time>
      </trkpt>
      <trkpt lat="45.16735" lon="5.64133">
        <ele>1176</ele>
        <time>2011-06-15T06:53:20Z</time>
      </trkpt>
      <trkpt lat="45.16725" lon="5.64146">
        <ele>1176</ele>
        <time>2011-06-15T06:53:22Z</time>
      </trkpt>
      <trkpt lat="45.16718" lon="5.64151">
        <ele>1176</ele>
        <time>2011-06-15T06:53:23Z</time>
      </trkpt>
      <trkpt lat="45.16714" lon="5.64155">
        <ele>1175</ele>
        <time>2011-06-15T06:53:24Z</time>
      </trkpt>
      <trkpt lat="45.1671" lon="5.64159">
        <ele>1174</ele>
        <time>2011-06-15T06:53:25Z</time>
      </trkpt>
      <trkpt lat="45.16706" lon="5.64166">
        <ele>1174</ele>
        <time>2011-06-15T06:53:26Z</time>
      </trkpt>
      <trkpt lat="45.167" lon="5.64171">
        <ele>1174</ele>
        <time>2011-06-15T06:53:27Z</time>
      </trkpt>
      <trkpt lat="45.16696" lon="5.64177">
        <ele>1173</ele>
        <time>2011-06-15T06:53:28Z</time>
      </trkpt>
      <trkpt lat="45.16691" lon="5.64185">
        <ele>1173</ele>
        <time>2011-06-15T06:53:29Z</time>
      </trkpt>
      <trkpt lat="45.16685" lon="5.6419">
        <ele>1173</ele>
        <time>2011-06-15T06:53:30Z</time>
      </trkpt>
      <trkpt lat="45.1668" lon="5.64193">
        <ele>1173</ele>
        <time>2011-06-15T06:53:31Z</time>
      </trkpt>
      <trkpt lat="45.16676" lon="5.642">
        <ele>1173</ele>
        <time>2011-06-15T06:53:32Z</time>
      </trkpt>
      <trkpt lat="45.16671" lon="5.64206">
        <ele>1173</ele>
        <time>2011-06-15T06:53:33Z</time>
      </trkpt>
      <trkpt lat="45.16664" lon="5.64212">
        <ele>1173</ele>
        <time>2011-06-15T06:53:34Z</time>
      </trkpt>
      <trkpt lat="45.1666" lon="5.64215">
        <ele>1173</ele>
        <time>2011-06-15T06:53:35Z</time>
      </trkpt>
      <trkpt lat="45.16656" lon="5.6422">
        <ele>1173</ele>
        <time>2011-06-15T06:53:36Z</time>
      </trkpt>
      <trkpt lat="45.16651" lon="5.64225">
        <ele>1173</ele>
        <time>2011-06-15T06:53:37Z</time>
      </trkpt>
      <trkpt lat="45.16648" lon="5.64229">
        <ele>1173</ele>
        <time>2011-06-15T06:53:38Z</time>
      </trkpt>
      <trkpt lat="45.1664" lon="5.64234">
        <ele>1172</ele>
        <time>2011-06-15T06:53:39Z</time>
      </trkpt>
      <trkpt lat="45.16633" lon="5.64244">
        <ele>1172</ele>
        <time>2011-06-15T06:53:40Z</time>
      </trkpt>
      <trkpt lat="45.16632" lon="5.64252">
        <ele>1171</ele>
        <time>2011-06-15T06:53:41Z</time>
      </trkpt>
      <trkpt lat="45.16628" lon="5.64255">
        <ele>1171</ele>
        <time>2011-06-15T06:53:42Z</time>
      </trkpt>
      <trkpt lat="45.16624" lon="5.64259">
        <ele>1170</ele>
        <time>2011-06-15T06:53:44Z</time>
      </trkpt>
      <trkpt lat="45.16628" lon="5.64266">
        <ele>1168</ele>
        <time>2011-06-15T06:53:49Z</time>
      </trkpt>
      <trkpt lat="45.16625" lon="5.64272">
        <ele>1167</ele>
        <time>2011-06-15T06:54:02Z</time>
      </trkpt>
      <trkpt lat="45.16628" lon="5.64278">
        <ele>1166</ele>
        <time>2011-06-15T06:54:07Z</time>
      </trkpt>
      <trkpt lat="45.16625" lon="5.64282">
        <ele>1165</ele>
        <time>2011-06-15T06:54:13Z</time>
      </trkpt>
      <trkpt lat="45.16617" lon="5.64292">
        <ele>1163</ele>
        <time>2011-06-15T06:54:26Z</time>
      </trkpt>
      <trkpt lat="45.16617" lon="5.64299">
        <ele>1163</ele>
        <time>2011-06-15T06:54:28Z</time>
      </trkpt>
      <trkpt lat="45.16616" lon="5.64292">
        <ele>1163</ele>
        <time>2011-06-15T06:54:29Z</time>
      </trkpt>
      <trkpt lat="45.16619" lon="5.64284">
        <ele>1161</ele>
        <time>2011-06-15T06:54:31Z</time>
      </trkpt>
      <trkpt lat="45.16623" lon="5.64276">
        <ele>1161</ele>
        <time>2011-06-15T06:54:33Z</time>
      </trkpt>
      <trkpt lat="45.16616" lon="5.64278">
        <ele>1161</ele>
        <time>2011-06-15T06:54:34Z</time>
      </trkpt>
      <trkpt lat="45.16616" lon="5.64278">
        <ele>1161</ele>
        <time>2011-06-15T06:54:34Z</time>
      </trkpt>
      <trkpt lat="45.16616" lon="5.64278">
        <ele>1161</ele>
        <time>2011-06-15T06:54:36Z</time>
      </trkpt>
      <trkpt lat="45.1662" lon="5.64273">
        <ele>1156</ele>
        <time>2011-06-15T06:54:39Z</time>
      </trkpt>
      <trkpt lat="45.16615" lon="5.64278">
        <ele>1152</ele>
        <time>2011-06-15T06:54:44Z</time>
      </trkpt>
      <trkpt lat="45.16615" lon="5.6429">
        <ele>1150</ele>
        <time>2011-06-15T06:54:53Z</time>
      </trkpt>
      <trkpt lat="45.16617" lon="5.643">
        <ele>1149</ele>
        <time>2011-06-15T06:54:54Z</time>
      </trkpt>
      <trkpt lat="45.16617" lon="5.64309">
        <ele>1148</ele>
        <time>2011-06-15T06:54:55Z</time>
      </trkpt>
      <trkpt lat="45.16617" lon="5.64316">
        <ele>1148</ele>
        <time>2011-06-15T06:54:56Z</time>
      </trkpt>
      <trkpt lat="45.16617" lon="5.64324">
        <ele>1148</ele>
        <time>2011-06-15T06:54:57Z</time>
      </trkpt>
      <trkpt lat="45.16615" lon="5.64338">
        <ele>1148</ele>
        <time>2011-06-15T06:54:59Z</time>
      </trkpt>
      <trkpt lat="45.16612" lon="5.64348">
        <ele>1147</ele>
        <time>2011-06-15T06:55:00Z</time>
      </trkpt>
      <trkpt lat="45.1661" lon="5.64354">
        <ele>1147</ele>
        <time>2011-06-15T06:55:01Z</time>
      </trkpt>
      <trkpt lat="45.16609" lon="5.64364">
        <ele>1147</ele>
        <time>2011-06-15T06:55:02Z</time>
      </trkpt>
      <trkpt lat="45.16607" lon="5.64374">
        <ele>1147</ele>
        <time>2011-06-15T06:55:03Z</time>
      </trkpt>
      <trkpt lat="45.16606" lon="5.64384">
        <ele>1147</ele>
        <time>2011-06-15T06:55:04Z</time>
      </trkpt>
      <trkpt lat="45.16608" lon="5.64395">
        <ele>1147</ele>
        <time>2011-06-15T06:55:05Z</time>
      </trkpt>
      <trkpt lat="45.16607" lon="5.64403">
        <ele>1146</ele>
        <time>2011-06-15T06:55:06Z</time>
      </trkpt>
      <trkpt lat="45.16609" lon="5.64413">
        <ele>1146</ele>
        <time>2011-06-15T06:55:07Z</time>
      </trkpt>
      <trkpt lat="45.1661" lon="5.64419">
        <ele>1146</ele>
        <time>2011-06-15T06:55:08Z</time>
      </trkpt>
      <trkpt lat="45.16609" lon="5.64426">
        <ele>1146</ele>
        <time>2011-06-15T06:55:10Z</time>
      </trkpt>
      <trkpt lat="45.16612" lon="5.64434">
        <ele>1146</ele>
        <time>2011-06-15T06:55:12Z</time>
      </trkpt>
      <trkpt lat="45.16611" lon="5.6444">
        <ele>1145</ele>
        <time>2011-06-15T06:55:13Z</time>
      </trkpt>
      <trkpt lat="45.16611" lon="5.64449">
        <ele>1146</ele>
        <time>2011-06-15T06:55:15Z</time>
      </trkpt>
      <trkpt lat="45.16608" lon="5.64455">
        <ele>1145</ele>
        <time>2011-06-15T06:55:17Z</time>
      </trkpt>
      <trkpt lat="45.16608" lon="5.64462">
        <ele>1145</ele>
        <time>2011-06-15T06:55:19Z</time>
      </trkpt>
      <trkpt lat="45.16607" lon="5.64469">
        <ele>1146</ele>
        <time>2011-06-15T06:55:21Z</time>
      </trkpt>
      <trkpt lat="45.16606" lon="5.64482">
        <ele>1144</ele>
        <time>2011-06-15T06:55:24Z</time>
      </trkpt>
      <trkpt lat="45.16604" lon="5.6449">
        <ele>1143</ele>
        <time>2011-06-15T06:55:26Z</time>
      </trkpt>
      <trkpt lat="45.16601" lon="5.64495">
        <ele>1142</ele>
        <time>2011-06-15T06:55:27Z</time>
      </trkpt>
      <trkpt lat="45.16596" lon="5.64505">
        <ele>1143</ele>
        <time>2011-06-15T06:55:29Z</time>
      </trkpt>
      <trkpt lat="45.16594" lon="5.64511">
        <ele>1143</ele>
        <time>2011-06-15T06:55:30Z</time>
      </trkpt>
      <trkpt lat="45.16588" lon="5.64521">
        <ele>1143</ele>
        <time>2011-06-15T06:55:32Z</time>
      </trkpt>
      <trkpt lat="45.16582" lon="5.64526">
        <ele>1142</ele>
        <time>2011-06-15T06:55:34Z</time>
      </trkpt>
      <trkpt lat="45.16581" lon="5.64532">
        <ele>1138</ele>
        <time>2011-06-15T06:55:36Z</time>
      </trkpt>
      <trkpt lat="45.16576" lon="5.64537">
        <ele>1136</ele>
        <time>2011-06-15T06:55:38Z</time>
      </trkpt>
      <trkpt lat="45.16579" lon="5.64548">
        <ele>1133</ele>
        <time>2011-06-15T06:55:41Z</time>
      </trkpt>
      <trkpt lat="45.16584" lon="5.64549">
        <ele>1132</ele>
        <time>2011-06-15T06:55:45Z</time>
      </trkpt>
      <trkpt lat="45.16588" lon="5.6456">
        <ele>1132</ele>
        <time>2011-06-15T06:55:49Z</time>
      </trkpt>
      <trkpt lat="45.16594" lon="5.64565">
        <ele>1132</ele>
        <time>2011-06-15T06:55:51Z</time>
      </trkpt>
      <trkpt lat="45.16598" lon="5.64569">
        <ele>1132</ele>
        <time>2011-06-15T06:55:53Z</time>
      </trkpt>
      <trkpt lat="45.16603" lon="5.64578">
        <ele>1132</ele>
        <time>2011-06-15T06:55:55Z</time>
      </trkpt>
      <trkpt lat="45.16606" lon="5.64586">
        <ele>1132</ele>
        <time>2011-06-15T06:55:57Z</time>
      </trkpt>
      <trkpt lat="45.16607" lon="5.64592">
        <ele>1131</ele>
        <time>2011-06-15T06:55:58Z</time>
      </trkpt>
      <trkpt lat="45.16614" lon="5.64596">
        <ele>1131</ele>
        <time>2011-06-15T06:56:00Z</time>
      </trkpt>
      <trkpt lat="45.1662" lon="5.64597">
        <ele>1131</ele>
        <time>2011-06-15T06:56:02Z</time>
      </trkpt>
      <trkpt lat="45.16623" lon="5.64606">
        <ele>1131</ele>
        <time>2011-06-15T06:56:04Z</time>
      </trkpt>
      <trkpt lat="45.16626" lon="5.64611">
        <ele>1131</ele>
        <time>2011-06-15T06:56:06Z</time>
      </trkpt>
      <trkpt lat="45.16629" lon="5.64618">
        <ele>1131</ele>
        <time>2011-06-15T06:56:08Z</time>
      </trkpt>
      <trkpt lat="45.16631" lon="5.64628">
        <ele>1131</ele>
        <time>2011-06-15T06:56:10Z</time>
      </trkpt>
      <trkpt lat="45.16635" lon="5.64631">
        <ele>1131</ele>
        <time>2011-06-15T06:56:11Z</time>
      </trkpt>
      <trkpt lat="45.16642" lon="5.64639">
        <ele>1129</ele>
        <time>2011-06-15T06:56:13Z</time>
      </trkpt>
      <trkpt lat="45.16647" lon="5.64645">
        <ele>1127</ele>
        <time>2011-06-15T06:56:15Z</time>
      </trkpt>
      <trkpt lat="45.16651" lon="5.64652">
        <ele>1127</ele>
        <time>2011-06-15T06:56:18Z</time>
      </trkpt>
      <trkpt lat="45.16653" lon="5.64661">
        <ele>1124</ele>
        <time>2011-06-15T06:56:23Z</time>
      </trkpt>
      <trkpt lat="45.16655" lon="5.64667">
        <ele>1123</ele>
        <time>2011-06-15T06:56:28Z</time>
      </trkpt>
      <trkpt lat="45.16661" lon="5.64677">
        <ele>1121</ele>
        <time>2011-06-15T06:56:32Z</time>
      </trkpt>
      <trkpt lat="45.16667" lon="5.64677">
        <ele>1119</ele>
        <time>2011-06-15T06:56:33Z</time>
      </trkpt>
      <trkpt lat="45.16672" lon="5.6467">
        <ele>1115</ele>
        <time>2011-06-15T06:56:38Z</time>
      </trkpt>
      <trkpt lat="45.16673" lon="5.64663">
        <ele>1115</ele>
        <time>2011-06-15T06:56:40Z</time>
      </trkpt>
      <trkpt lat="45.16675" lon="5.64655">
        <ele>1115</ele>
        <time>2011-06-15T06:56:43Z</time>
      </trkpt>
      <trkpt lat="45.16683" lon="5.64658">
        <ele>1114</ele>
        <time>2011-06-15T06:56:53Z</time>
      </trkpt>
      <trkpt lat="45.16673" lon="5.64653">
        <ele>1113</ele>
        <time>2011-06-15T06:57:03Z</time>
      </trkpt>
      <trkpt lat="45.16689" lon="5.64645">
        <ele>1113</ele>
        <time>2011-06-15T06:57:05Z</time>
      </trkpt>
      <trkpt lat="45.16693" lon="5.64637">
        <ele>1111</ele>
        <time>2011-06-15T06:57:08Z</time>
      </trkpt>
      <trkpt lat="45.16698" lon="5.64634">
        <ele>1111</ele>
        <time>2011-06-15T06:57:10Z</time>
      </trkpt>
      <trkpt lat="45.16708" lon="5.64632">
        <ele>1111</ele>
        <time>2011-06-15T06:57:11Z</time>
      </trkpt>
      <trkpt lat="45.167" lon="5.64628">
        <ele>1107</ele>
        <time>2011-06-15T06:57:14Z</time>
      </trkpt>
      <trkpt lat="45.16696" lon="5.64632">
        <ele>1102</ele>
        <time>2011-06-15T06:57:16Z</time>
      </trkpt>
      <trkpt lat="45.167" lon="5.64638">
        <ele>1098</ele>
        <time>2011-06-15T06:57:22Z</time>
      </trkpt>
      <trkpt lat="45.16708" lon="5.64633">
        <ele>1091</ele>
        <time>2011-06-15T06:57:35Z</time>
      </trkpt>
      <trkpt lat="45.16712" lon="5.64629">
        <ele>1090</ele>
        <time>2011-06-15T06:57:36Z</time>
      </trkpt>
      <trkpt lat="45.16718" lon="5.64628">
        <ele>1090</ele>
        <time>2011-06-15T06:57:37Z</time>
      </trkpt>
      <trkpt lat="45.16722" lon="5.64625">
        <ele>1090</ele>
        <time>2011-06-15T06:57:39Z</time>
      </trkpt>
      <trkpt lat="45.16728" lon="5.64623">
        <ele>1091</ele>
        <time>2011-06-15T06:57:40Z</time>
      </trkpt>
      <trkpt lat="45.16733" lon="5.64624">
        <ele>1089</ele>
        <time>2011-06-15T06:57:46Z</time>
      </trkpt>
      <trkpt lat="45.16733" lon="5.64624">
        <ele>1089</ele>
        <time>2011-06-15T06:57:46Z</time>
      </trkpt>
      <trkpt lat="45.16733" lon="5.64624">
        <ele>1090</ele>
        <time>2011-06-15T06:57:47Z</time>
      </trkpt>
      <trkpt lat="45.16738" lon="5.64618">
        <ele>1086</ele>
        <time>2011-06-15T06:57:53Z</time>
      </trkpt>
      <trkpt lat="45.16744" lon="5.64611">
        <ele>1083</ele>
        <time>2011-06-15T06:58:37Z</time>
      </trkpt>
      <trkpt lat="45.16749" lon="5.64607">
        <ele>1082</ele>
        <time>2011-06-15T06:58:39Z</time>
      </trkpt>
      <trkpt lat="45.16749" lon="5.646">
        <ele>1081</ele>
        <time>2011-06-15T06:58:43Z</time>
      </trkpt>
      <trkpt lat="45.16754" lon="5.64606">
        <ele>1076</ele>
        <time>2011-06-15T06:58:49Z</time>
      </trkpt>
      <trkpt lat="45.16758" lon="5.64603">
        <ele>1067</ele>
        <time>2011-06-15T06:59:07Z</time>
      </trkpt>
      <trkpt lat="45.16764" lon="5.64604">
        <ele>1065</ele>
        <time>2011-06-15T06:59:14Z</time>
      </trkpt>
      <trkpt lat="45.16764" lon="5.64604">
        <ele>1065</ele>
        <time>2011-06-15T06:59:14Z</time>
      </trkpt>
      <trkpt lat="45.16764" lon="5.64604">
        <ele>1065</ele>
        <time>2011-06-15T06:59:15Z</time>
      </trkpt>
      <trkpt lat="45.16764" lon="5.6461">
        <ele>1064</ele>
        <time>2011-06-15T06:59:26Z</time>
      </trkpt>
      <trkpt lat="45.1676" lon="5.64618">
        <ele>1064</ele>
        <time>2011-06-15T06:59:37Z</time>
      </trkpt>
      <trkpt lat="45.16757" lon="5.64628">
        <ele>1065</ele>
        <time>2011-06-15T06:59:38Z</time>
      </trkpt>
      <trkpt lat="45.16757" lon="5.64637">
        <ele>1065</ele>
        <time>2011-06-15T06:59:39Z</time>
      </trkpt>
      <trkpt lat="45.16757" lon="5.64649">
        <ele>1066</ele>
        <time>2011-06-15T06:59:41Z</time>
      </trkpt>
      <trkpt lat="45.1676" lon="5.64657">
        <ele>1067</ele>
        <time>2011-06-15T06:59:42Z</time>
      </trkpt>
      <trkpt lat="45.16763" lon="5.64664">
        <ele>1068</ele>
        <time>2011-06-15T06:59:43Z</time>
      </trkpt>
      <trkpt lat="45.16765" lon="5.64672">
        <ele>1068</ele>
        <time>2011-06-15T06:59:44Z</time>
      </trkpt>
      <trkpt lat="45.16765" lon="5.6468">
        <ele>1066</ele>
        <time>2011-06-15T06:59:45Z</time>
      </trkpt>
      <trkpt lat="45.16766" lon="5.64691">
        <ele>1066</ele>
        <time>2011-06-15T06:59:46Z</time>
      </trkpt>
      <trkpt lat="45.16766" lon="5.64699">
        <ele>1066</ele>
        <time>2011-06-15T06:59:47Z</time>
      </trkpt>
      <trkpt lat="45.16765" lon="5.64713">
        <ele>1066</ele>
        <time>2011-06-15T06:59:49Z</time>
      </trkpt>
      <trkpt lat="45.16763" lon="5.64721">
        <ele>1066</ele>
        <time>2011-06-15T06:59:50Z</time>
      </trkpt>
      <trkpt lat="45.1676" lon="5.64732">
        <ele>1066</ele>
        <time>2011-06-15T06:59:52Z</time>
      </trkpt>
      <trkpt lat="45.1676" lon="5.64739">
        <ele>1066</ele>
        <time>2011-06-15T06:59:53Z</time>
      </trkpt>
      <trkpt lat="45.16759" lon="5.64751">
        <ele>1064</ele>
        <time>2011-06-15T06:59:55Z</time>
      </trkpt>
      <trkpt lat="45.1676" lon="5.64762">
        <ele>1061</ele>
        <time>2011-06-15T06:59:56Z</time>
      </trkpt>
      <trkpt lat="45.1676" lon="5.64774">
        <ele>1060</ele>
        <time>2011-06-15T06:59:57Z</time>
      </trkpt>
      <trkpt lat="45.16761" lon="5.64784">
        <ele>1059</ele>
        <time>2011-06-15T06:59:58Z</time>
      </trkpt>
      <trkpt lat="45.16763" lon="5.64791">
        <ele>1058</ele>
        <time>2011-06-15T06:59:59Z</time>
      </trkpt>
      <trkpt lat="45.16763" lon="5.648">
        <ele>1057</ele>
        <time>2011-06-15T07:00:00Z</time>
      </trkpt>
      <trkpt lat="45.16764" lon="5.64809">
        <ele>1056</ele>
        <time>2011-06-15T07:00:01Z</time>
      </trkpt>
      <trkpt lat="45.16763" lon="5.64816">
        <ele>1055</ele>
        <time>2011-06-15T07:00:02Z</time>
      </trkpt>
      <trkpt lat="45.16762" lon="5.64828">
        <ele>1056</ele>
        <time>2011-06-15T07:00:04Z</time>
      </trkpt>
      <trkpt lat="45.16761" lon="5.64834">
        <ele>1056</ele>
        <time>2011-06-15T07:00:05Z</time>
      </trkpt>
      <trkpt lat="45.16765" lon="5.64844">
        <ele>1056</ele>
        <time>2011-06-15T07:00:07Z</time>
      </trkpt>
      <trkpt lat="45.16763" lon="5.64851">
        <ele>1056</ele>
        <time>2011-06-15T07:00:09Z</time>
      </trkpt>
      <trkpt lat="45.16764" lon="5.64859">
        <ele>1056</ele>
        <time>2011-06-15T07:00:11Z</time>
      </trkpt>
      <trkpt lat="45.16769" lon="5.64861">
        <ele>1054</ele>
        <time>2011-06-15T07:00:15Z</time>
      </trkpt>
      <trkpt lat="45.16768" lon="5.64869">
        <ele>1048</ele>
        <time>2011-06-15T07:00:19Z</time>
      </trkpt>
      <trkpt lat="45.16766" lon="5.6488">
        <ele>1047</ele>
        <time>2011-06-15T07:00:21Z</time>
      </trkpt>
      <trkpt lat="45.16766" lon="5.64887">
        <ele>1047</ele>
        <time>2011-06-15T07:00:23Z</time>
      </trkpt>
      <trkpt lat="45.16768" lon="5.64893">
        <ele>1044</ele>
        <time>2011-06-15T07:00:26Z</time>
      </trkpt>
      <trkpt lat="45.16768" lon="5.64901">
        <ele>1041</ele>
        <time>2011-06-15T07:00:29Z</time>
      </trkpt>
      <trkpt lat="45.16771" lon="5.64906">
        <ele>1041</ele>
        <time>2011-06-15T07:00:31Z</time>
      </trkpt>
      <trkpt lat="45.16772" lon="5.64912">
        <ele>1042</ele>
        <time>2011-06-15T07:00:34Z</time>
      </trkpt>
      <trkpt lat="45.16774" lon="5.6492">
        <ele>1041</ele>
        <time>2011-06-15T07:00:35Z</time>
      </trkpt>
      <trkpt lat="45.16777" lon="5.64927">
        <ele>1039</ele>
        <time>2011-06-15T07:00:37Z</time>
      </trkpt>
      <trkpt lat="45.16782" lon="5.64935">
        <ele>1038</ele>
        <time>2011-06-15T07:00:40Z</time>
      </trkpt>
      <trkpt lat="45.16782" lon="5.64942">
        <ele>1038</ele>
        <time>2011-06-15T07:00:41Z</time>
      </trkpt>
      <trkpt lat="45.1679" lon="5.64954">
        <ele>1035</ele>
        <time>2011-06-15T07:00:43Z</time>
      </trkpt>
      <trkpt lat="45.16793" lon="5.64962">
        <ele>1033</ele>
        <time>2011-06-15T07:00:44Z</time>
      </trkpt>
      <trkpt lat="45.16795" lon="5.64969">
        <ele>1031</ele>
        <time>2011-06-15T07:00:45Z</time>
      </trkpt>
      <trkpt lat="45.16798" lon="5.64976">
        <ele>1030</ele>
        <time>2011-06-15T07:00:47Z</time>
      </trkpt>
      <trkpt lat="45.168" lon="5.64983">
        <ele>1030</ele>
        <time>2011-06-15T07:00:49Z</time>
      </trkpt>
      <trkpt lat="45.16797" lon="5.64992">
        <ele>1029</ele>
        <time>2011-06-15T07:00:51Z</time>
      </trkpt>
      <trkpt lat="45.16798" lon="5.65003">
        <ele>1028</ele>
        <time>2011-06-15T07:00:54Z</time>
      </trkpt>
      <trkpt lat="45.16798" lon="5.65013">
        <ele>1026</ele>
        <time>2011-06-15T07:00:56Z</time>
      </trkpt>
      <trkpt lat="45.16795" lon="5.65024">
        <ele>1027</ele>
        <time>2011-06-15T07:00:59Z</time>
      </trkpt>
      <trkpt lat="45.16791" lon="5.65032">
        <ele>1023</ele>
        <time>2011-06-15T07:01:02Z</time>
      </trkpt>
      <trkpt lat="45.16788" lon="5.65038">
        <ele>1022</ele>
        <time>2011-06-15T07:01:03Z</time>
      </trkpt>
      <trkpt lat="45.16787" lon="5.65045">
        <ele>1021</ele>
        <time>2011-06-15T07:01:04Z</time>
      </trkpt>
      <trkpt lat="45.1678" lon="5.65053">
        <ele>1020</ele>
        <time>2011-06-15T07:01:06Z</time>
      </trkpt>
      <trkpt lat="45.16777" lon="5.65059">
        <ele>1020</ele>
        <time>2011-06-15T07:01:07Z</time>
      </trkpt>
      <trkpt lat="45.16772" lon="5.65064">
        <ele>1019</ele>
        <time>2011-06-15T07:01:08Z</time>
      </trkpt>
      <trkpt lat="45.1677" lon="5.6507">
        <ele>1018</ele>
        <time>2011-06-15T07:01:09Z</time>
      </trkpt>
      <trkpt lat="45.16768" lon="5.65075">
        <ele>1018</ele>
        <time>2011-06-15T07:01:10Z</time>
      </trkpt>
      <trkpt lat="45.16766" lon="5.65084">
        <ele>1018</ele>
        <time>2011-06-15T07:01:11Z</time>
      </trkpt>
      <trkpt lat="45.16764" lon="5.6509">
        <ele>1017</ele>
        <time>2011-06-15T07:01:12Z</time>
      </trkpt>
      <trkpt lat="45.16763" lon="5.65097">
        <ele>1017</ele>
        <time>2011-06-15T07:01:13Z</time>
      </trkpt>
      <trkpt lat="45.1676" lon="5.65105">
        <ele>1016</ele>
        <time>2011-06-15T07:01:14Z</time>
      </trkpt>
      <trkpt lat="45.16758" lon="5.65113">
        <ele>1016</ele>
        <time>2011-06-15T07:01:15Z</time>
      </trkpt>
      <trkpt lat="45.16756" lon="5.65121">
        <ele>1015</ele>
        <time>2011-06-15T07:01:16Z</time>
      </trkpt>
      <trkpt lat="45.16756" lon="5.6513">
        <ele>1013</ele>
        <time>2011-06-15T07:01:17Z</time>
      </trkpt>
      <trkpt lat="45.16758" lon="5.65138">
        <ele>1010</ele>
        <time>2011-06-15T07:01:18Z</time>
      </trkpt>
      <trkpt lat="45.1676" lon="5.6515">
        <ele>1009</ele>
        <time>2011-06-15T07:01:20Z</time>
      </trkpt>
      <trkpt lat="45.16762" lon="5.65159">
        <ele>1007</ele>
        <time>2011-06-15T07:01:21Z</time>
      </trkpt>
      <trkpt lat="45.16762" lon="5.65166">
        <ele>1006</ele>
        <time>2011-06-15T07:01:22Z</time>
      </trkpt>
      <trkpt lat="45.16762" lon="5.65172">
        <ele>1007</ele>
        <time>2011-06-15T07:01:23Z</time>
      </trkpt>
      <trkpt lat="45.16763" lon="5.65179">
        <ele>1007</ele>
        <time>2011-06-15T07:01:24Z</time>
      </trkpt>
      <trkpt lat="45.16763" lon="5.65186">
        <ele>1007</ele>
        <time>2011-06-15T07:01:25Z</time>
      </trkpt>
      <trkpt lat="45.16765" lon="5.65193">
        <ele>1007</ele>
        <time>2011-06-15T07:01:26Z</time>
      </trkpt>
      <trkpt lat="45.16769" lon="5.65201">
        <ele>1007</ele>
        <time>2011-06-15T07:01:27Z</time>
      </trkpt>
      <trkpt lat="45.16772" lon="5.65207">
        <ele>1007</ele>
        <time>2011-06-15T07:01:28Z</time>
      </trkpt>
      <trkpt lat="45.16777" lon="5.65216">
        <ele>1007</ele>
        <time>2011-06-15T07:01:30Z</time>
      </trkpt>
      <trkpt lat="45.1678" lon="5.65222">
        <ele>1007</ele>
        <time>2011-06-15T07:01:31Z</time>
      </trkpt>
      <trkpt lat="45.16786" lon="5.65237">
        <ele>1008</ele>
        <time>2011-06-15T07:01:33Z</time>
      </trkpt>
      <trkpt lat="45.16787" lon="5.65246">
        <ele>1007</ele>
        <time>2011-06-15T07:01:34Z</time>
      </trkpt>
      <trkpt lat="45.16787" lon="5.65264">
        <ele>1006</ele>
        <time>2011-06-15T07:01:36Z</time>
      </trkpt>
      <trkpt lat="45.16787" lon="5.65271">
        <ele>1006</ele>
        <time>2011-06-15T07:01:37Z</time>
      </trkpt>
      <trkpt lat="45.16787" lon="5.65281">
        <ele>1005</ele>
        <time>2011-06-15T07:01:38Z</time>
      </trkpt>
      <trkpt lat="45.1679" lon="5.65295">
        <ele>1005</ele>
        <time>2011-06-15T07:01:40Z</time>
      </trkpt>
      <trkpt lat="45.16793" lon="5.65307">
        <ele>1005</ele>
        <time>2011-06-15T07:01:41Z</time>
      </trkpt>
      <trkpt lat="45.16796" lon="5.65319">
        <ele>1004</ele>
        <time>2011-06-15T07:01:42Z</time>
      </trkpt>
      <trkpt lat="45.16798" lon="5.65332">
        <ele>1002</ele>
        <time>2011-06-15T07:01:43Z</time>
      </trkpt>
      <trkpt lat="45.16798" lon="5.65341">
        <ele>1001</ele>
        <time>2011-06-15T07:01:44Z</time>
      </trkpt>
      <trkpt lat="45.16798" lon="5.65349">
        <ele>1000</ele>
        <time>2011-06-15T07:01:45Z</time>
      </trkpt>
      <trkpt lat="45.16799" lon="5.65358">
        <ele>999</ele>
        <time>2011-06-15T07:01:46Z</time>
      </trkpt>
      <trkpt lat="45.16801" lon="5.65366">
        <ele>998</ele>
        <time>2011-06-15T07:01:47Z</time>
      </trkpt>
      <trkpt lat="45.16803" lon="5.65384">
        <ele>994</ele>
        <time>2011-06-15T07:01:49Z</time>
      </trkpt>
      <trkpt lat="45.16804" lon="5.65395">
        <ele>991</ele>
        <time>2011-06-15T07:01:51Z</time>
      </trkpt>
      <trkpt lat="45.16806" lon="5.65401">
        <ele>991</ele>
        <time>2011-06-15T07:01:52Z</time>
      </trkpt>
      <trkpt lat="45.16805" lon="5.6541">
        <ele>989</ele>
        <time>2011-06-15T07:01:54Z</time>
      </trkpt>
      <trkpt lat="45.16802" lon="5.65417">
        <ele>982</ele>
        <time>2011-06-15T07:01:58Z</time>
      </trkpt>
      <trkpt lat="45.16802" lon="5.65424">
        <ele>979</ele>
        <time>2011-06-15T07:02:02Z</time>
      </trkpt>
      <trkpt lat="45.16802" lon="5.65424">
        <ele>979</ele>
        <time>2011-06-15T07:02:02Z</time>
      </trkpt>
      <trkpt lat="45.16802" lon="5.65424">
        <ele>979</ele>
        <time>2011-06-15T07:02:04Z</time>
      </trkpt>
      <trkpt lat="45.16799" lon="5.65429">
        <ele>977</ele>
        <time>2011-06-15T07:02:21Z</time>
      </trkpt>
      <trkpt lat="45.16797" lon="5.65438">
        <ele>976</ele>
        <time>2011-06-15T07:02:23Z</time>
      </trkpt>
      <trkpt lat="45.16792" lon="5.65446">
        <ele>974</ele>
        <time>2011-06-15T07:02:25Z</time>
      </trkpt>
      <trkpt lat="45.16788" lon="5.65451">
        <ele>975</ele>
        <time>2011-06-15T07:02:26Z</time>
      </trkpt>
      <trkpt lat="45.16785" lon="5.65456">
        <ele>975</ele>
        <time>2011-06-15T07:02:27Z</time>
      </trkpt>
      <trkpt lat="45.16782" lon="5.65463">
        <ele>975</ele>
        <time>2011-06-15T07:02:28Z</time>
      </trkpt>
      <trkpt lat="45.16779" lon="5.65468">
        <ele>975</ele>
        <time>2011-06-15T07:02:29Z</time>
      </trkpt>
      <trkpt lat="45.16777" lon="5.65475">
        <ele>975</ele>
        <time>2011-06-15T07:02:30Z</time>
      </trkpt>
      <trkpt lat="45.16776" lon="5.65482">
        <ele>974</ele>
        <time>2011-06-15T07:02:31Z</time>
      </trkpt>
      <trkpt lat="45.16778" lon="5.65498">
        <ele>974</ele>
        <time>2011-06-15T07:02:33Z</time>
      </trkpt>
      <trkpt lat="45.1678" lon="5.65505">
        <ele>974</ele>
        <time>2011-06-15T07:02:34Z</time>
      </trkpt>
      <trkpt lat="45.16781" lon="5.65513">
        <ele>974</ele>
        <time>2011-06-15T07:02:35Z</time>
      </trkpt>
      <trkpt lat="45.16784" lon="5.6552">
        <ele>973</ele>
        <time>2011-06-15T07:02:36Z</time>
      </trkpt>
      <trkpt lat="45.16786" lon="5.6553">
        <ele>973</ele>
        <time>2011-06-15T07:02:37Z</time>
      </trkpt>
      <trkpt lat="45.16788" lon="5.65539">
        <ele>974</ele>
        <time>2011-06-15T07:02:38Z</time>
      </trkpt>
      <trkpt lat="45.16791" lon="5.65547">
        <ele>974</ele>
        <time>2011-06-15T07:02:39Z</time>
      </trkpt>
      <trkpt lat="45.16795" lon="5.65557">
        <ele>973</ele>
        <time>2011-06-15T07:02:40Z</time>
      </trkpt>
      <trkpt lat="45.16799" lon="5.65567">
        <ele>973</ele>
        <time>2011-06-15T07:02:41Z</time>
      </trkpt>
      <trkpt lat="45.16801" lon="5.65579">
        <ele>973</ele>
        <time>2011-06-15T07:02:42Z</time>
      </trkpt>
      <trkpt lat="45.16804" lon="5.65584">
        <ele>972</ele>
        <time>2011-06-15T07:02:43Z</time>
      </trkpt>
      <trkpt lat="45.16807" lon="5.656">
        <ele>971</ele>
        <time>2011-06-15T07:02:44Z</time>
      </trkpt>
      <trkpt lat="45.16813" lon="5.65611">
        <ele>969</ele>
        <time>2011-06-15T07:02:45Z</time>
      </trkpt>
      <trkpt lat="45.16816" lon="5.65619">
        <ele>968</ele>
        <time>2011-06-15T07:02:46Z</time>
      </trkpt>
      <trkpt lat="45.16818" lon="5.65626">
        <ele>967</ele>
        <time>2011-06-15T07:02:47Z</time>
      </trkpt>
      <trkpt lat="45.16823" lon="5.65644">
        <ele>965</ele>
        <time>2011-06-15T07:02:49Z</time>
      </trkpt>
      <trkpt lat="45.16824" lon="5.65653">
        <ele>965</ele>
        <time>2011-06-15T07:02:50Z</time>
      </trkpt>
      <trkpt lat="45.16826" lon="5.65661">
        <ele>965</ele>
        <time>2011-06-15T07:02:51Z</time>
      </trkpt>
      <trkpt lat="45.16828" lon="5.65667">
        <ele>965</ele>
        <time>2011-06-15T07:02:52Z</time>
      </trkpt>
      <trkpt lat="45.1683" lon="5.65675">
        <ele>964</ele>
        <time>2011-06-15T07:02:53Z</time>
      </trkpt>
      <trkpt lat="45.16832" lon="5.65685">
        <ele>963</ele>
        <time>2011-06-15T07:02:54Z</time>
      </trkpt>
      <trkpt lat="45.16835" lon="5.65691">
        <ele>963</ele>
        <time>2011-06-15T07:02:55Z</time>
      </trkpt>
      <trkpt lat="45.16837" lon="5.65698">
        <ele>963</ele>
        <time>2011-06-15T07:02:56Z</time>
      </trkpt>
      <trkpt lat="45.16841" lon="5.65706">
        <ele>963</ele>
        <time>2011-06-15T07:02:57Z</time>
      </trkpt>
      <trkpt lat="45.16844" lon="5.65714">
        <ele>962</ele>
        <time>2011-06-15T07:02:58Z</time>
      </trkpt>
      <trkpt lat="45.16847" lon="5.65722">
        <ele>962</ele>
        <time>2011-06-15T07:02:59Z</time>
      </trkpt>
      <trkpt lat="45.16854" lon="5.65727">
        <ele>963</ele>
        <time>2011-06-15T07:03:00Z</time>
      </trkpt>
      <trkpt lat="45.1686" lon="5.65737">
        <ele>963</ele>
        <time>2011-06-15T07:03:01Z</time>
      </trkpt>
      <trkpt lat="45.16867" lon="5.65749">
        <ele>962</ele>
        <time>2011-06-15T07:03:02Z</time>
      </trkpt>
      <trkpt lat="45.1687" lon="5.65759">
        <ele>962</ele>
        <time>2011-06-15T07:03:03Z</time>
      </trkpt>
      <trkpt lat="45.16873" lon="5.6577">
        <ele>962</ele>
        <time>2011-06-15T07:03:04Z</time>
      </trkpt>
      <trkpt lat="45.16874" lon="5.65779">
        <ele>962</ele>
        <time>2011-06-15T07:03:05Z</time>
      </trkpt>
      <trkpt lat="45.16875" lon="5.65794">
        <ele>961</ele>
        <time>2011-06-15T07:03:07Z</time>
      </trkpt>
      <trkpt lat="45.16877" lon="5.65807">
        <ele>961</ele>
        <time>2011-06-15T07:03:09Z</time>
      </trkpt>
      <trkpt lat="45.16875" lon="5.65814">
        <ele>960</ele>
        <time>2011-06-15T07:03:10Z</time>
      </trkpt>
      <trkpt lat="45.16873" lon="5.6582">
        <ele>960</ele>
        <time>2011-06-15T07:03:11Z</time>
      </trkpt>
      <trkpt lat="45.16872" lon="5.65827">
        <ele>960</ele>
        <time>2011-06-15T07:03:12Z</time>
      </trkpt>
      <trkpt lat="45.16869" lon="5.65834">
        <ele>959</ele>
        <time>2011-06-15T07:03:13Z</time>
      </trkpt>
      <trkpt lat="45.16867" lon="5.65842">
        <ele>957</ele>
        <time>2011-06-15T07:03:15Z</time>
      </trkpt>
      <trkpt lat="45.16868" lon="5.65851">
        <ele>957</ele>
        <time>2011-06-15T07:03:17Z</time>
      </trkpt>
      <trkpt lat="45.16868" lon="5.65857">
        <ele>956</ele>
        <time>2011-06-15T07:03:18Z</time>
      </trkpt>
      <trkpt lat="45.16872" lon="5.65866">
        <ele>956</ele>
        <time>2011-06-15T07:03:19Z</time>
      </trkpt>
      <trkpt lat="45.16873" lon="5.65872">
        <ele>955</ele>
        <time>2011-06-15T07:03:20Z</time>
      </trkpt>
      <trkpt lat="45.16877" lon="5.65881">
        <ele>953</ele>
        <time>2011-06-15T07:03:22Z</time>
      </trkpt>
      <trkpt lat="45.16885" lon="5.6589">
        <ele>953</ele>
        <time>2011-06-15T07:03:24Z</time>
      </trkpt>
      <trkpt lat="45.1689" lon="5.65899">
        <ele>950</ele>
        <time>2011-06-15T07:03:26Z</time>
      </trkpt>
      <trkpt lat="45.16892" lon="5.65907">
        <ele>949</ele>
        <time>2011-06-15T07:03:27Z</time>
      </trkpt>
      <trkpt lat="45.16894" lon="5.65914">
        <ele>949</ele>
        <time>2011-06-15T07:03:28Z</time>
      </trkpt>
      <trkpt lat="45.16895" lon="5.65921">
        <ele>948</ele>
        <time>2011-06-15T07:03:29Z</time>
      </trkpt>
      <trkpt lat="45.16896" lon="5.65927">
        <ele>946</ele>
        <time>2011-06-15T07:03:31Z</time>
      </trkpt>
      <trkpt lat="45.16901" lon="5.65938">
        <ele>943</ele>
        <time>2011-06-15T07:03:33Z</time>
      </trkpt>
      <trkpt lat="45.16903" lon="5.65946">
        <ele>941</ele>
        <time>2011-06-15T07:03:34Z</time>
      </trkpt>
      <trkpt lat="45.16906" lon="5.65951">
        <ele>939</ele>
        <time>2011-06-15T07:03:35Z</time>
      </trkpt>
      <trkpt lat="45.16906" lon="5.6596">
        <ele>938</ele>
        <time>2011-06-15T07:03:36Z</time>
      </trkpt>
      <trkpt lat="45.1691" lon="5.65967">
        <ele>934</ele>
        <time>2011-06-15T07:03:38Z</time>
      </trkpt>
      <trkpt lat="45.16914" lon="5.65981">
        <ele>928</ele>
        <time>2011-06-15T07:03:40Z</time>
      </trkpt>
      <trkpt lat="45.1692" lon="5.6599">
        <ele>927</ele>
        <time>2011-06-15T07:03:42Z</time>
      </trkpt>
      <trkpt lat="45.16923" lon="5.65998">
        <ele>925</ele>
        <time>2011-06-15T07:03:43Z</time>
      </trkpt>
      <trkpt lat="45.16927" lon="5.66005">
        <ele>920</ele>
        <time>2011-06-15T07:03:44Z</time>
      </trkpt>
      <trkpt lat="45.1693" lon="5.66011">
        <ele>918</ele>
        <time>2011-06-15T07:03:45Z</time>
      </trkpt>
      <trkpt lat="45.16935" lon="5.66021">
        <ele>912</ele>
        <time>2011-06-15T07:03:47Z</time>
      </trkpt>
      <trkpt lat="45.16938" lon="5.66029">
        <ele>910</ele>
        <time>2011-06-15T07:03:49Z</time>
      </trkpt>
      <trkpt lat="45.16942" lon="5.66037">
        <ele>910</ele>
        <time>2011-06-15T07:03:51Z</time>
      </trkpt>
      <trkpt lat="45.16941" lon="5.66045">
        <ele>908</ele>
        <time>2011-06-15T07:03:53Z</time>
      </trkpt>
      <trkpt lat="45.16939" lon="5.66054">
        <ele>906</ele>
        <time>2011-06-15T07:03:56Z</time>
      </trkpt>
      <trkpt lat="45.1694" lon="5.66066">
        <ele>903</ele>
        <time>2011-06-15T07:03:58Z</time>
      </trkpt>
      <trkpt lat="45.16943" lon="5.66079">
        <ele>902</ele>
        <time>2011-06-15T07:04:00Z</time>
      </trkpt>
      <trkpt lat="45.16946" lon="5.66084">
        <ele>901</ele>
        <time>2011-06-15T07:04:01Z</time>
      </trkpt>
      <trkpt lat="45.1695" lon="5.66089">
        <ele>901</ele>
        <time>2011-06-15T07:04:02Z</time>
      </trkpt>
      <trkpt lat="45.16952" lon="5.66096">
        <ele>900</ele>
        <time>2011-06-15T07:04:03Z</time>
      </trkpt>
      <trkpt lat="45.16956" lon="5.66103">
        <ele>897</ele>
        <time>2011-06-15T07:04:06Z</time>
      </trkpt>
      <trkpt lat="45.16957" lon="5.66111">
        <ele>896</ele>
        <time>2011-06-15T07:04:08Z</time>
      </trkpt>
      <trkpt lat="45.1696" lon="5.66117">
        <ele>895</ele>
        <time>2011-06-15T07:04:10Z</time>
      </trkpt>
      <trkpt lat="45.16964" lon="5.66123">
        <ele>895</ele>
        <time>2011-06-15T07:04:12Z</time>
      </trkpt>
      <trkpt lat="45.16969" lon="5.66134">
        <ele>893</ele>
        <time>2011-06-15T07:04:13Z</time>
      </trkpt>
      <trkpt lat="45.16972" lon="5.6614">
        <ele>891</ele>
        <time>2011-06-15T07:04:14Z</time>
      </trkpt>
      <trkpt lat="45.16975" lon="5.66146">
        <ele>889</ele>
        <time>2011-06-15T07:04:15Z</time>
      </trkpt>
      <trkpt lat="45.16977" lon="5.66156">
        <ele>889</ele>
        <time>2011-06-15T07:04:17Z</time>
      </trkpt>
      <trkpt lat="45.16976" lon="5.66163">
        <ele>888</ele>
        <time>2011-06-15T07:04:19Z</time>
      </trkpt>
      <trkpt lat="45.16973" lon="5.66172">
        <ele>887</ele>
        <time>2011-06-15T07:04:22Z</time>
      </trkpt>
      <trkpt lat="45.1697" lon="5.66178">
        <ele>885</ele>
        <time>2011-06-15T07:04:25Z</time>
      </trkpt>
      <trkpt lat="45.16966" lon="5.66184">
        <ele>884</ele>
        <time>2011-06-15T07:04:27Z</time>
      </trkpt>
      <trkpt lat="45.16968" lon="5.6619">
        <ele>883</ele>
        <time>2011-06-15T07:04:29Z</time>
      </trkpt>
      <trkpt lat="45.16975" lon="5.66201">
        <ele>880</ele>
        <time>2011-06-15T07:04:32Z</time>
      </trkpt>
      <trkpt lat="45.16978" lon="5.66207">
        <ele>879</ele>
        <time>2011-06-15T07:04:33Z</time>
      </trkpt>
      <trkpt lat="45.16979" lon="5.66215">
        <ele>876</ele>
        <time>2011-06-15T07:04:35Z</time>
      </trkpt>
      <trkpt lat="45.16979" lon="5.66223">
        <ele>873</ele>
        <time>2011-06-15T07:04:37Z</time>
      </trkpt>
      <trkpt lat="45.16983" lon="5.66229">
        <ele>870</ele>
        <time>2011-06-15T07:04:40Z</time>
      </trkpt>
      <trkpt lat="45.16985" lon="5.66236">
        <ele>869</ele>
        <time>2011-06-15T07:04:43Z</time>
      </trkpt>
      <trkpt lat="45.16986" lon="5.66243">
        <ele>869</ele>
        <time>2011-06-15T07:04:45Z</time>
      </trkpt>
      <trkpt lat="45.16991" lon="5.66246">
        <ele>868</ele>
        <time>2011-06-15T07:04:47Z</time>
      </trkpt>
      <trkpt lat="45.16995" lon="5.66251">
        <ele>867</ele>
        <time>2011-06-15T07:04:49Z</time>
      </trkpt>
      <trkpt lat="45.16997" lon="5.66259">
        <ele>865</ele>
        <time>2011-06-15T07:04:53Z</time>
      </trkpt>
      <trkpt lat="45.17" lon="5.66264">
        <ele>863</ele>
        <time>2011-06-15T07:04:56Z</time>
      </trkpt>
      <trkpt lat="45.17002" lon="5.66271">
        <ele>861</ele>
        <time>2011-06-15T07:04:58Z</time>
      </trkpt>
      <trkpt lat="45.17004" lon="5.66278">
        <ele>858</ele>
        <time>2011-06-15T07:05:02Z</time>
      </trkpt>
      <trkpt lat="45.17008" lon="5.66282">
        <ele>857</ele>
        <time>2011-06-15T07:05:06Z</time>
      </trkpt>
      <trkpt lat="45.17006" lon="5.66289">
        <ele>856</ele>
        <time>2011-06-15T07:05:09Z</time>
      </trkpt>
      <trkpt lat="45.17006" lon="5.66298">
        <ele>855</ele>
        <time>2011-06-15T07:05:12Z</time>
      </trkpt>
      <trkpt lat="45.17006" lon="5.66304">
        <ele>854</ele>
        <time>2011-06-15T07:05:14Z</time>
      </trkpt>
      <trkpt lat="45.17005" lon="5.66313">
        <ele>853</ele>
        <time>2011-06-15T07:05:16Z</time>
      </trkpt>
      <trkpt lat="45.17004" lon="5.66326">
        <ele>854</ele>
        <time>2011-06-15T07:05:19Z</time>
      </trkpt>
      <trkpt lat="45.17012" lon="5.66333">
        <ele>849</ele>
        <time>2011-06-15T07:05:20Z</time>
      </trkpt>
      <trkpt lat="45.17016" lon="5.6633">
        <ele>847</ele>
        <time>2011-06-15T07:05:23Z</time>
      </trkpt>
      <trkpt lat="45.17019" lon="5.66335">
        <ele>845</ele>
        <time>2011-06-15T07:05:26Z</time>
      </trkpt>
      <trkpt lat="45.1702" lon="5.66343">
        <ele>845</ele>
        <time>2011-06-15T07:05:30Z</time>
      </trkpt>
      <trkpt lat="45.17023" lon="5.66348">
        <ele>845</ele>
        <time>2011-06-15T07:05:32Z</time>
      </trkpt>
      <trkpt lat="45.17023" lon="5.66355">
        <ele>844</ele>
        <time>2011-06-15T07:05:34Z</time>
      </trkpt>
      <trkpt lat="45.17028" lon="5.66355">
        <ele>843</ele>
        <time>2011-06-15T07:05:36Z</time>
      </trkpt>
      <trkpt lat="45.17032" lon="5.66359">
        <ele>843</ele>
        <time>2011-06-15T07:05:38Z</time>
      </trkpt>
      <trkpt lat="45.17039" lon="5.66357">
        <ele>840</ele>
        <time>2011-06-15T07:05:45Z</time>
      </trkpt>
      <trkpt lat="45.17044" lon="5.66357">
        <ele>840</ele>
        <time>2011-06-15T07:05:50Z</time>
      </trkpt>
      <trkpt lat="45.17057" lon="5.66358">
        <ele>838</ele>
        <time>2011-06-15T07:05:56Z</time>
      </trkpt>
      <trkpt lat="45.17064" lon="5.66358">
        <ele>833</ele>
        <time>2011-06-15T07:05:59Z</time>
      </trkpt>
      <trkpt lat="45.17072" lon="5.66359">
        <ele>829</ele>
        <time>2011-06-15T07:06:04Z</time>
      </trkpt>
      <trkpt lat="45.17073" lon="5.66353">
        <ele>823</ele>
        <time>2011-06-15T07:06:07Z</time>
      </trkpt>
      <trkpt lat="45.17078" lon="5.66357">
        <ele>814</ele>
        <time>2011-06-15T07:06:21Z</time>
      </trkpt>
      <trkpt lat="45.17081" lon="5.66362">
        <ele>809</ele>
        <time>2011-06-15T07:06:28Z</time>
      </trkpt>
      <trkpt lat="45.17089" lon="5.66352">
        <ele>806</ele>
        <time>2011-06-15T07:06:33Z</time>
      </trkpt>
      <trkpt lat="45.17092" lon="5.66346">
        <ele>806</ele>
        <time>2011-06-15T07:06:36Z</time>
      </trkpt>
      <trkpt lat="45.17098" lon="5.66345">
        <ele>805</ele>
        <time>2011-06-15T07:06:38Z</time>
      </trkpt>
      <trkpt lat="45.17111" lon="5.66346">
        <ele>805</ele>
        <time>2011-06-15T07:06:40Z</time>
      </trkpt>
      <trkpt lat="45.17123" lon="5.66342">
        <ele>804</ele>
        <time>2011-06-15T07:06:41Z</time>
      </trkpt>
      <trkpt lat="45.17117" lon="5.66347">
        <ele>801</ele>
        <time>2011-06-15T07:06:44Z</time>
      </trkpt>
      <trkpt lat="45.17125" lon="5.66352">
        <ele>799</ele>
        <time>2011-06-15T07:06:46Z</time>
      </trkpt>
      <trkpt lat="45.1713" lon="5.66353">
        <ele>799</ele>
        <time>2011-06-15T07:06:47Z</time>
      </trkpt>
      <trkpt lat="45.17137" lon="5.66354">
        <ele>798</ele>
        <time>2011-06-15T07:06:49Z</time>
      </trkpt>
      <trkpt lat="45.17142" lon="5.66353">
        <ele>798</ele>
        <time>2011-06-15T07:06:50Z</time>
      </trkpt>
      <trkpt lat="45.1715" lon="5.66351">
        <ele>795</ele>
        <time>2011-06-15T07:06:52Z</time>
      </trkpt>
      <trkpt lat="45.17155" lon="5.66347">
        <ele>793</ele>
        <time>2011-06-15T07:06:54Z</time>
      </trkpt>
      <trkpt lat="45.17149" lon="5.66347">
        <ele>787</ele>
        <time>2011-06-15T07:07:07Z</time>
      </trkpt>
      <trkpt lat="45.17144" lon="5.6635">
        <ele>786</ele>
        <time>2011-06-15T07:07:09Z</time>
      </trkpt>
      <trkpt lat="45.17139" lon="5.66357">
        <ele>787</ele>
        <time>2011-06-15T07:07:10Z</time>
      </trkpt>
      <trkpt lat="45.17135" lon="5.66369">
        <ele>785</ele>
        <time>2011-06-15T07:07:12Z</time>
      </trkpt>
      <trkpt lat="45.17132" lon="5.66376">
        <ele>785</ele>
        <time>2011-06-15T07:07:13Z</time>
      </trkpt>
      <trkpt lat="45.17126" lon="5.66387">
        <ele>785</ele>
        <time>2011-06-15T07:07:15Z</time>
      </trkpt>
      <trkpt lat="45.1712" lon="5.66393">
        <ele>785</ele>
        <time>2011-06-15T07:07:16Z</time>
      </trkpt>
      <trkpt lat="45.17117" lon="5.664">
        <ele>785</ele>
        <time>2011-06-15T07:07:17Z</time>
      </trkpt>
      <trkpt lat="45.17114" lon="5.66406">
        <ele>784</ele>
        <time>2011-06-15T07:07:18Z</time>
      </trkpt>
      <trkpt lat="45.1711" lon="5.66417">
        <ele>785</ele>
        <time>2011-06-15T07:07:20Z</time>
      </trkpt>
      <trkpt lat="45.17108" lon="5.66424">
        <ele>784</ele>
        <time>2011-06-15T07:07:21Z</time>
      </trkpt>
      <trkpt lat="45.17101" lon="5.66435">
        <ele>784</ele>
        <time>2011-06-15T07:07:22Z</time>
      </trkpt>
      <trkpt lat="45.17098" lon="5.66442">
        <ele>784</ele>
        <time>2011-06-15T07:07:24Z</time>
      </trkpt>
      <trkpt lat="45.17093" lon="5.66449">
        <ele>783</ele>
        <time>2011-06-15T07:07:26Z</time>
      </trkpt>
      <trkpt lat="45.17087" lon="5.66457">
        <ele>783</ele>
        <time>2011-06-15T07:07:28Z</time>
      </trkpt>
      <trkpt lat="45.17082" lon="5.66464">
        <ele>783</ele>
        <time>2011-06-15T07:07:30Z</time>
      </trkpt>
      <trkpt lat="45.17077" lon="5.66466">
        <ele>783</ele>
        <time>2011-06-15T07:07:31Z</time>
      </trkpt>
      <trkpt lat="45.17061" lon="5.66474">
        <ele>784</ele>
        <time>2011-06-15T07:07:32Z</time>
      </trkpt>
      <trkpt lat="45.1706" lon="5.66483">
        <ele>783</ele>
        <time>2011-06-15T07:07:35Z</time>
      </trkpt>
      <trkpt lat="45.17064" lon="5.66493">
        <ele>780</ele>
        <time>2011-06-15T07:07:37Z</time>
      </trkpt>
      <trkpt lat="45.17066" lon="5.66501">
        <ele>778</ele>
        <time>2011-06-15T07:07:38Z</time>
      </trkpt>
      <trkpt lat="45.17078" lon="5.66501">
        <ele>776</ele>
        <time>2011-06-15T07:07:40Z</time>
      </trkpt>
      <trkpt lat="45.17084" lon="5.66502">
        <ele>776</ele>
        <time>2011-06-15T07:07:41Z</time>
      </trkpt>
      <trkpt lat="45.17093" lon="5.66508">
        <ele>772</ele>
        <time>2011-06-15T07:07:43Z</time>
      </trkpt>
      <trkpt lat="45.17098" lon="5.66509">
        <ele>772</ele>
        <time>2011-06-15T07:07:44Z</time>
      </trkpt>
      <trkpt lat="45.17103" lon="5.66512">
        <ele>769</ele>
        <time>2011-06-15T07:07:46Z</time>
      </trkpt>
      <trkpt lat="45.17106" lon="5.66517">
        <ele>766</ele>
        <time>2011-06-15T07:07:47Z</time>
      </trkpt>
      <trkpt lat="45.17111" lon="5.66519">
        <ele>763</ele>
        <time>2011-06-15T07:07:50Z</time>
      </trkpt>
      <trkpt lat="45.17113" lon="5.66526">
        <ele>753</ele>
        <time>2011-06-15T07:07:57Z</time>
      </trkpt>
      <trkpt lat="45.17113" lon="5.66536">
        <ele>750</ele>
        <time>2011-06-15T07:08:00Z</time>
      </trkpt>
      <trkpt lat="45.1711" lon="5.66544">
        <ele>749</ele>
        <time>2011-06-15T07:08:02Z</time>
      </trkpt>
      <trkpt lat="45.17111" lon="5.6655">
        <ele>748</ele>
        <time>2011-06-15T07:08:03Z</time>
      </trkpt>
      <trkpt lat="45.17108" lon="5.66558">
        <ele>748</ele>
        <time>2011-06-15T07:08:04Z</time>
      </trkpt>
      <trkpt lat="45.17105" lon="5.66565">
        <ele>747</ele>
        <time>2011-06-15T07:08:05Z</time>
      </trkpt>
      <trkpt lat="45.17103" lon="5.66572">
        <ele>747</ele>
        <time>2011-06-15T07:08:06Z</time>
      </trkpt>
      <trkpt lat="45.17102" lon="5.66582">
        <ele>746</ele>
        <time>2011-06-15T07:08:07Z</time>
      </trkpt>
      <trkpt lat="45.17103" lon="5.66591">
        <ele>745</ele>
        <time>2011-06-15T07:08:08Z</time>
      </trkpt>
      <trkpt lat="45.17105" lon="5.66607">
        <ele>742</ele>
        <time>2011-06-15T07:08:09Z</time>
      </trkpt>
      <trkpt lat="45.17108" lon="5.66621">
        <ele>738</ele>
        <time>2011-06-15T07:08:10Z</time>
      </trkpt>
      <trkpt lat="45.17112" lon="5.66629">
        <ele>737</ele>
        <time>2011-06-15T07:08:11Z</time>
      </trkpt>
      <trkpt lat="45.17117" lon="5.66637">
        <ele>737</ele>
        <time>2011-06-15T07:08:12Z</time>
      </trkpt>
      <trkpt lat="45.17122" lon="5.66646">
        <ele>736</ele>
        <time>2011-06-15T07:08:13Z</time>
      </trkpt>
      <trkpt lat="45.17126" lon="5.66655">
        <ele>735</ele>
        <time>2011-06-15T07:08:14Z</time>
      </trkpt>
      <trkpt lat="45.17129" lon="5.66666">
        <ele>735</ele>
        <time>2011-06-15T07:08:15Z</time>
      </trkpt>
      <trkpt lat="45.17131" lon="5.66677">
        <ele>733</ele>
        <time>2011-06-15T07:08:16Z</time>
      </trkpt>
      <trkpt lat="45.17136" lon="5.66685">
        <ele>732</ele>
        <time>2011-06-15T07:08:17Z</time>
      </trkpt>
      <trkpt lat="45.17139" lon="5.66692">
        <ele>730</ele>
        <time>2011-06-15T07:08:18Z</time>
      </trkpt>
      <trkpt lat="45.17144" lon="5.66697">
        <ele>728</ele>
        <time>2011-06-15T07:08:19Z</time>
      </trkpt>
      <trkpt lat="45.17149" lon="5.66701">
        <ele>727</ele>
        <time>2011-06-15T07:08:20Z</time>
      </trkpt>
      <trkpt lat="45.17154" lon="5.667">
        <ele>724</ele>
        <time>2011-06-15T07:08:21Z</time>
      </trkpt>
      <trkpt lat="45.17158" lon="5.66693">
        <ele>721</ele>
        <time>2011-06-15T07:08:22Z</time>
      </trkpt>
      <trkpt lat="45.17161" lon="5.66687">
        <ele>718</ele>
        <time>2011-06-15T07:08:24Z</time>
      </trkpt>
      <trkpt lat="45.17164" lon="5.66691">
        <ele>717</ele>
        <time>2011-06-15T07:08:26Z</time>
      </trkpt>
      <trkpt lat="45.17168" lon="5.66697">
        <ele>716</ele>
        <time>2011-06-15T07:08:28Z</time>
      </trkpt>
      <trkpt lat="45.17173" lon="5.66701">
        <ele>714</ele>
        <time>2011-06-15T07:08:30Z</time>
      </trkpt>
      <trkpt lat="45.1718" lon="5.66694">
        <ele>712</ele>
        <time>2011-06-15T07:08:34Z</time>
      </trkpt>
      <trkpt lat="45.1718" lon="5.66684">
        <ele>712</ele>
        <time>2011-06-15T07:08:36Z</time>
      </trkpt>
      <trkpt lat="45.17182" lon="5.66671">
        <ele>712</ele>
        <time>2011-06-15T07:08:38Z</time>
      </trkpt>
      <trkpt lat="45.17184" lon="5.66662">
        <ele>712</ele>
        <time>2011-06-15T07:08:40Z</time>
      </trkpt>
      <trkpt lat="45.17186" lon="5.66656">
        <ele>712</ele>
        <time>2011-06-15T07:08:41Z</time>
      </trkpt>
      <trkpt lat="45.17188" lon="5.6665">
        <ele>712</ele>
        <time>2011-06-15T07:08:42Z</time>
      </trkpt>
      <trkpt lat="45.1719" lon="5.66636">
        <ele>713</ele>
        <time>2011-06-15T07:08:44Z</time>
      </trkpt>
      <trkpt lat="45.17191" lon="5.6663">
        <ele>713</ele>
        <time>2011-06-15T07:08:45Z</time>
      </trkpt>
      <trkpt lat="45.17196" lon="5.66621">
        <ele>713</ele>
        <time>2011-06-15T07:08:46Z</time>
      </trkpt>
      <trkpt lat="45.17198" lon="5.66614">
        <ele>713</ele>
        <time>2011-06-15T07:08:47Z</time>
      </trkpt>
      <trkpt lat="45.17203" lon="5.666">
        <ele>714</ele>
        <time>2011-06-15T07:08:49Z</time>
      </trkpt>
      <trkpt lat="45.1721" lon="5.6659">
        <ele>714</ele>
        <time>2011-06-15T07:08:51Z</time>
      </trkpt>
      <trkpt lat="45.17214" lon="5.66585">
        <ele>714</ele>
        <time>2011-06-15T07:08:52Z</time>
      </trkpt>
      <trkpt lat="45.17218" lon="5.66579">
        <ele>714</ele>
        <time>2011-06-15T07:08:53Z</time>
      </trkpt>
      <trkpt lat="45.17222" lon="5.66574">
        <ele>714</ele>
        <time>2011-06-15T07:08:55Z</time>
      </trkpt>
      <trkpt lat="45.17227" lon="5.66565">
        <ele>715</ele>
        <time>2011-06-15T07:08:57Z</time>
      </trkpt>
      <trkpt lat="45.17235" lon="5.66547">
        <ele>713</ele>
        <time>2011-06-15T07:08:58Z</time>
      </trkpt>
      <trkpt lat="45.17238" lon="5.66538">
        <ele>713</ele>
        <time>2011-06-15T07:08:59Z</time>
      </trkpt>
      <trkpt lat="45.17244" lon="5.66532">
        <ele>712</ele>
        <time>2011-06-15T07:09:01Z</time>
      </trkpt>
      <trkpt lat="45.17251" lon="5.66523">
        <ele>710</ele>
        <time>2011-06-15T07:09:02Z</time>
      </trkpt>
      <trkpt lat="45.17257" lon="5.66518">
        <ele>710</ele>
        <time>2011-06-15T07:09:03Z</time>
      </trkpt>
      <trkpt lat="45.17262" lon="5.66515">
        <ele>710</ele>
        <time>2011-06-15T07:09:04Z</time>
      </trkpt>
      <trkpt lat="45.17272" lon="5.66508">
        <ele>710</ele>
        <time>2011-06-15T07:09:06Z</time>
      </trkpt>
      <trkpt lat="45.17278" lon="5.66506">
        <ele>709</ele>
        <time>2011-06-15T07:09:07Z</time>
      </trkpt>
      <trkpt lat="45.17284" lon="5.66503">
        <ele>709</ele>
        <time>2011-06-15T07:09:08Z</time>
      </trkpt>
      <trkpt lat="45.17293" lon="5.66501">
        <ele>709</ele>
        <time>2011-06-15T07:09:10Z</time>
      </trkpt>
      <trkpt lat="45.17299" lon="5.66498">
        <ele>709</ele>
        <time>2011-06-15T07:09:11Z</time>
      </trkpt>
      <trkpt lat="45.17304" lon="5.66494">
        <ele>708</ele>
        <time>2011-06-15T07:09:12Z</time>
      </trkpt>
      <trkpt lat="45.17309" lon="5.66491">
        <ele>708</ele>
        <time>2011-06-15T07:09:13Z</time>
      </trkpt>
      <trkpt lat="45.17314" lon="5.66488">
        <ele>707</ele>
        <time>2011-06-15T07:09:14Z</time>
      </trkpt>
      <trkpt lat="45.17317" lon="5.66484">
        <ele>706</ele>
        <time>2011-06-15T07:09:15Z</time>
      </trkpt>
      <trkpt lat="45.17323" lon="5.66479">
        <ele>705</ele>
        <time>2011-06-15T07:09:16Z</time>
      </trkpt>
      <trkpt lat="45.17329" lon="5.66475">
        <ele>705</ele>
        <time>2011-06-15T07:09:18Z</time>
      </trkpt>
      <trkpt lat="45.17334" lon="5.66471">
        <ele>703</ele>
        <time>2011-06-15T07:09:20Z</time>
      </trkpt>
      <trkpt lat="45.17337" lon="5.66462">
        <ele>703</ele>
        <time>2011-06-15T07:09:22Z</time>
      </trkpt>
      <trkpt lat="45.17341" lon="5.66451">
        <ele>703</ele>
        <time>2011-06-15T07:09:24Z</time>
      </trkpt>
      <trkpt lat="45.17345" lon="5.66447">
        <ele>703</ele>
        <time>2011-06-15T07:09:25Z</time>
      </trkpt>
      <trkpt lat="45.17349" lon="5.66443">
        <ele>702</ele>
        <time>2011-06-15T07:09:26Z</time>
      </trkpt>
      <trkpt lat="45.17354" lon="5.66441">
        <ele>702</ele>
        <time>2011-06-15T07:09:27Z</time>
      </trkpt>
      <trkpt lat="45.17359" lon="5.66435">
        <ele>702</ele>
        <time>2011-06-15T07:09:29Z</time>
      </trkpt>
      <trkpt lat="45.17368" lon="5.66426">
        <ele>702</ele>
        <time>2011-06-15T07:09:31Z</time>
      </trkpt>
      <trkpt lat="45.17372" lon="5.66423">
        <ele>702</ele>
        <time>2011-06-15T07:09:32Z</time>
      </trkpt>
      <trkpt lat="45.17378" lon="5.66419">
        <ele>702</ele>
        <time>2011-06-15T07:09:34Z</time>
      </trkpt>
      <trkpt lat="45.17382" lon="5.66413">
        <ele>703</ele>
        <time>2011-06-15T07:09:35Z</time>
      </trkpt>
      <trkpt lat="45.17387" lon="5.66406">
        <ele>705</ele>
        <time>2011-06-15T07:09:37Z</time>
      </trkpt>
      <trkpt lat="45.17392" lon="5.664">
        <ele>705</ele>
        <time>2011-06-15T07:09:39Z</time>
      </trkpt>
      <trkpt lat="45.174" lon="5.66391">
        <ele>704</ele>
        <time>2011-06-15T07:09:42Z</time>
      </trkpt>
      <trkpt lat="45.17408" lon="5.66388">
        <ele>704</ele>
        <time>2011-06-15T07:09:44Z</time>
      </trkpt>
      <trkpt lat="45.17412" lon="5.66393">
        <ele>704</ele>
        <time>2011-06-15T07:09:46Z</time>
      </trkpt>
      <trkpt lat="45.1742" lon="5.66396">
        <ele>703</ele>
        <time>2011-06-15T07:09:49Z</time>
      </trkpt>
      <trkpt lat="45.17426" lon="5.66399">
        <ele>703</ele>
        <time>2011-06-15T07:09:51Z</time>
      </trkpt>
      <trkpt lat="45.17435" lon="5.66397">
        <ele>704</ele>
        <time>2011-06-15T07:09:53Z</time>
      </trkpt>
      <trkpt lat="45.1744" lon="5.66402">
        <ele>704</ele>
        <time>2011-06-15T07:09:55Z</time>
      </trkpt>
      <trkpt lat="45.17447" lon="5.66407">
        <ele>705</ele>
        <time>2011-06-15T07:09:57Z</time>
      </trkpt>
      <trkpt lat="45.17454" lon="5.66407">
        <ele>705</ele>
        <time>2011-06-15T07:09:59Z</time>
      </trkpt>
      <trkpt lat="45.17459" lon="5.66409">
        <ele>705</ele>
        <time>2011-06-15T07:10:01Z</time>
      </trkpt>
      <trkpt lat="45.17466" lon="5.6641">
        <ele>705</ele>
        <time>2011-06-15T07:10:03Z</time>
      </trkpt>
      <trkpt lat="45.17474" lon="5.6641">
        <ele>705</ele>
        <time>2011-06-15T07:10:05Z</time>
      </trkpt>
      <trkpt lat="45.1748" lon="5.66411">
        <ele>705</ele>
        <time>2011-06-15T07:10:07Z</time>
      </trkpt>
      <trkpt lat="45.17487" lon="5.66411">
        <ele>706</ele>
        <time>2011-06-15T07:10:09Z</time>
      </trkpt>
      <trkpt lat="45.17496" lon="5.66413">
        <ele>705</ele>
        <time>2011-06-15T07:10:11Z</time>
      </trkpt>
      <trkpt lat="45.17502" lon="5.6641">
        <ele>706</ele>
        <time>2011-06-15T07:10:12Z</time>
      </trkpt>
      <trkpt lat="45.17509" lon="5.66406">
        <ele>706</ele>
        <time>2011-06-15T07:10:13Z</time>
      </trkpt>
      <trkpt lat="45.17515" lon="5.66405">
        <ele>706</ele>
        <time>2011-06-15T07:10:14Z</time>
      </trkpt>
      <trkpt lat="45.17523" lon="5.66403">
        <ele>705</ele>
        <time>2011-06-15T07:10:15Z</time>
      </trkpt>
      <trkpt lat="45.17529" lon="5.66403">
        <ele>705</ele>
        <time>2011-06-15T07:10:16Z</time>
      </trkpt>
      <trkpt lat="45.17536" lon="5.664">
        <ele>705</ele>
        <time>2011-06-15T07:10:17Z</time>
      </trkpt>
      <trkpt lat="45.17542" lon="5.66398">
        <ele>705</ele>
        <time>2011-06-15T07:10:18Z</time>
      </trkpt>
      <trkpt lat="45.17549" lon="5.66394">
        <ele>704</ele>
        <time>2011-06-15T07:10:19Z</time>
      </trkpt>
      <trkpt lat="45.17556" lon="5.66391">
        <ele>705</ele>
        <time>2011-06-15T07:10:20Z</time>
      </trkpt>
      <trkpt lat="45.17564" lon="5.66385">
        <ele>703</ele>
        <time>2011-06-15T07:10:21Z</time>
      </trkpt>
      <trkpt lat="45.1757" lon="5.6638">
        <ele>703</ele>
        <time>2011-06-15T07:10:22Z</time>
      </trkpt>
      <trkpt lat="45.17576" lon="5.66375">
        <ele>702</ele>
        <time>2011-06-15T07:10:23Z</time>
      </trkpt>
      <trkpt lat="45.17582" lon="5.66368">
        <ele>702</ele>
        <time>2011-06-15T07:10:24Z</time>
      </trkpt>
      <trkpt lat="45.17587" lon="5.66362">
        <ele>702</ele>
        <time>2011-06-15T07:10:25Z</time>
      </trkpt>
      <trkpt lat="45.17591" lon="5.66354">
        <ele>703</ele>
        <time>2011-06-15T07:10:26Z</time>
      </trkpt>
      <trkpt lat="45.17595" lon="5.66347">
        <ele>703</ele>
        <time>2011-06-15T07:10:27Z</time>
      </trkpt>
      <trkpt lat="45.176" lon="5.66339">
        <ele>702</ele>
        <time>2011-06-15T07:10:28Z</time>
      </trkpt>
      <trkpt lat="45.17605" lon="5.66332">
        <ele>702</ele>
        <time>2011-06-15T07:10:29Z</time>
      </trkpt>
      <trkpt lat="45.17611" lon="5.66326">
        <ele>702</ele>
        <time>2011-06-15T07:10:30Z</time>
      </trkpt>
      <trkpt lat="45.17619" lon="5.6632">
        <ele>702</ele>
        <time>2011-06-15T07:10:31Z</time>
      </trkpt>
      <trkpt lat="45.17626" lon="5.66314">
        <ele>702</ele>
        <time>2011-06-15T07:10:32Z</time>
      </trkpt>
      <trkpt lat="45.17634" lon="5.6631">
        <ele>702</ele>
        <time>2011-06-15T07:10:33Z</time>
      </trkpt>
      <trkpt lat="45.17641" lon="5.66308">
        <ele>702</ele>
        <time>2011-06-15T07:10:34Z</time>
      </trkpt>
      <trkpt lat="45.17647" lon="5.66308">
        <ele>702</ele>
        <time>2011-06-15T07:10:35Z</time>
      </trkpt>
      <trkpt lat="45.17653" lon="5.66306">
        <ele>702</ele>
        <time>2011-06-15T07:10:36Z</time>
      </trkpt>
      <trkpt lat="45.17661" lon="5.66306">
        <ele>701</ele>
        <time>2011-06-15T07:10:37Z</time>
      </trkpt>
      <trkpt lat="45.17667" lon="5.66305">
        <ele>701</ele>
        <time>2011-06-15T07:10:38Z</time>
      </trkpt>
      <trkpt lat="45.17671" lon="5.66307">
        <ele>701</ele>
        <time>2011-06-15T07:10:39Z</time>
      </trkpt>
      <trkpt lat="45.17677" lon="5.66308">
        <ele>702</ele>
        <time>2011-06-15T07:10:40Z</time>
      </trkpt>
      <trkpt lat="45.17682" lon="5.66308">
        <ele>701</ele>
        <time>2011-06-15T07:10:41Z</time>
      </trkpt>
      <trkpt lat="45.17687" lon="5.66308">
        <ele>701</ele>
        <time>2011-06-15T07:10:42Z</time>
      </trkpt>
      <trkpt lat="45.17693" lon="5.66308">
        <ele>700</ele>
        <time>2011-06-15T07:10:43Z</time>
      </trkpt>
      <trkpt lat="45.17702" lon="5.66312">
        <ele>700</ele>
        <time>2011-06-15T07:10:45Z</time>
      </trkpt>
      <trkpt lat="45.17707" lon="5.66314">
        <ele>699</ele>
        <time>2011-06-15T07:10:47Z</time>
      </trkpt>
      <trkpt lat="45.17715" lon="5.66308">
        <ele>699</ele>
        <time>2011-06-15T07:10:49Z</time>
      </trkpt>
      <trkpt lat="45.1772" lon="5.66306">
        <ele>699</ele>
        <time>2011-06-15T07:10:51Z</time>
      </trkpt>
      <trkpt lat="45.17727" lon="5.66303">
        <ele>699</ele>
        <time>2011-06-15T07:10:53Z</time>
      </trkpt>
      <trkpt lat="45.17734" lon="5.663">
        <ele>699</ele>
        <time>2011-06-15T07:10:55Z</time>
      </trkpt>
      <trkpt lat="45.17741" lon="5.663">
        <ele>700</ele>
        <time>2011-06-15T07:10:57Z</time>
      </trkpt>
      <trkpt lat="45.17746" lon="5.66302">
        <ele>700</ele>
        <time>2011-06-15T07:10:59Z</time>
      </trkpt>
      <trkpt lat="45.17752" lon="5.66308">
        <ele>699</ele>
        <time>2011-06-15T07:11:01Z</time>
      </trkpt>
      <trkpt lat="45.17757" lon="5.66315">
        <ele>700</ele>
        <time>2011-06-15T07:11:03Z</time>
      </trkpt>
      <trkpt lat="45.17765" lon="5.66324">
        <ele>699</ele>
        <time>2011-06-15T07:11:05Z</time>
      </trkpt>
      <trkpt lat="45.17768" lon="5.66328">
        <ele>699</ele>
        <time>2011-06-15T07:11:06Z</time>
      </trkpt>
      <trkpt lat="45.17773" lon="5.66333">
        <ele>699</ele>
        <time>2011-06-15T07:11:07Z</time>
      </trkpt>
      <trkpt lat="45.17779" lon="5.66339">
        <ele>700</ele>
        <time>2011-06-15T07:11:09Z</time>
      </trkpt>
      <trkpt lat="45.17783" lon="5.66342">
        <ele>699</ele>
        <time>2011-06-15T07:11:10Z</time>
      </trkpt>
      <trkpt lat="45.17789" lon="5.66341">
        <ele>698</ele>
        <time>2011-06-15T07:11:11Z</time>
      </trkpt>
      <trkpt lat="45.17799" lon="5.66343">
        <ele>698</ele>
        <time>2011-06-15T07:11:13Z</time>
      </trkpt>
      <trkpt lat="45.17804" lon="5.66345">
        <ele>697</ele>
        <time>2011-06-15T07:11:14Z</time>
      </trkpt>
      <trkpt lat="45.17809" lon="5.66346">
        <ele>697</ele>
        <time>2011-06-15T07:11:15Z</time>
      </trkpt>
      <trkpt lat="45.17815" lon="5.66347">
        <ele>697</ele>
        <time>2011-06-15T07:11:16Z</time>
      </trkpt>
      <trkpt lat="45.1782" lon="5.66346">
        <ele>697</ele>
        <time>2011-06-15T07:11:17Z</time>
      </trkpt>
      <trkpt lat="45.17828" lon="5.66345">
        <ele>696</ele>
        <time>2011-06-15T07:11:18Z</time>
      </trkpt>
      <trkpt lat="45.17833" lon="5.66343">
        <ele>696</ele>
        <time>2011-06-15T07:11:19Z</time>
      </trkpt>
      <trkpt lat="45.17842" lon="5.66341">
        <ele>696</ele>
        <time>2011-06-15T07:11:21Z</time>
      </trkpt>
      <trkpt lat="45.17846" lon="5.66339">
        <ele>697</ele>
        <time>2011-06-15T07:11:22Z</time>
      </trkpt>
      <trkpt lat="45.17854" lon="5.66334">
        <ele>697</ele>
        <time>2011-06-15T07:11:24Z</time>
      </trkpt>
      <trkpt lat="45.17858" lon="5.6633">
        <ele>695</ele>
        <time>2011-06-15T07:11:25Z</time>
      </trkpt>
      <trkpt lat="45.17863" lon="5.66325">
        <ele>695</ele>
        <time>2011-06-15T07:11:26Z</time>
      </trkpt>
      <trkpt lat="45.17867" lon="5.66316">
        <ele>693</ele>
        <time>2011-06-15T07:11:27Z</time>
      </trkpt>
      <trkpt lat="45.17872" lon="5.6631">
        <ele>692</ele>
        <time>2011-06-15T07:11:29Z</time>
      </trkpt>
      <trkpt lat="45.17877" lon="5.66304">
        <ele>692</ele>
        <time>2011-06-15T07:11:31Z</time>
      </trkpt>
      <trkpt lat="45.17883" lon="5.66298">
        <ele>693</ele>
        <time>2011-06-15T07:11:33Z</time>
      </trkpt>
      <trkpt lat="45.17889" lon="5.66294">
        <ele>693</ele>
        <time>2011-06-15T07:11:35Z</time>
      </trkpt>
      <trkpt lat="45.17895" lon="5.66291">
        <ele>693</ele>
        <time>2011-06-15T07:11:36Z</time>
      </trkpt>
      <trkpt lat="45.179" lon="5.66289">
        <ele>693</ele>
        <time>2011-06-15T07:11:37Z</time>
      </trkpt>
      <trkpt lat="45.17905" lon="5.66287">
        <ele>693</ele>
        <time>2011-06-15T07:11:38Z</time>
      </trkpt>
      <trkpt lat="45.1791" lon="5.66284">
        <ele>693</ele>
        <time>2011-06-15T07:11:39Z</time>
      </trkpt>
      <trkpt lat="45.17926" lon="5.66287">
        <ele>693</ele>
        <time>2011-06-15T07:11:44Z</time>
      </trkpt>
      <trkpt lat="45.17932" lon="5.66287">
        <ele>693</ele>
        <time>2011-06-15T07:11:49Z</time>
      </trkpt>
      <trkpt lat="45.17936" lon="5.66282">
        <ele>693</ele>
        <time>2011-06-15T07:11:53Z</time>
      </trkpt>
      <trkpt lat="45.17933" lon="5.66287">
        <ele>694</ele>
        <time>2011-06-15T07:11:58Z</time>
      </trkpt>
      <trkpt lat="45.17938" lon="5.66287">
        <ele>694</ele>
        <time>2011-06-15T07:12:01Z</time>
      </trkpt>
      <trkpt lat="45.17942" lon="5.66283">
        <ele>694</ele>
        <time>2011-06-15T07:12:04Z</time>
      </trkpt>
      <trkpt lat="45.17936" lon="5.66283">
        <ele>694</ele>
        <time>2011-06-15T07:12:10Z</time>
      </trkpt>
      <trkpt lat="45.17941" lon="5.66282">
        <ele>694</ele>
        <time>2011-06-15T07:12:41Z</time>
      </trkpt>
      <trkpt lat="45.17938" lon="5.66288">
        <ele>694</ele>
        <time>2011-06-15T07:12:43Z</time>
      </trkpt>
      <trkpt lat="45.17936" lon="5.6628">
        <ele>694</ele>
        <time>2011-06-15T07:12:45Z</time>
      </trkpt>
      <trkpt lat="45.17942" lon="5.6627">
        <ele>695</ele>
        <time>2011-06-15T07:12:47Z</time>
      </trkpt>
      <trkpt lat="45.17945" lon="5.66264">
        <ele>692</ele>
        <time>2011-06-15T07:12:51Z</time>
      </trkpt>
      <trkpt lat="45.17949" lon="5.66258">
        <ele>693</ele>
        <time>2011-06-15T07:12:55Z</time>
      </trkpt>
      <trkpt lat="45.17954" lon="5.66251">
        <ele>693</ele>
        <time>2011-06-15T07:12:57Z</time>
      </trkpt>
      <trkpt lat="45.1796" lon="5.66249">
        <ele>694</ele>
        <time>2011-06-15T07:12:58Z</time>
      </trkpt>
      <trkpt lat="45.17965" lon="5.66251">
        <ele>694</ele>
        <time>2011-06-15T07:13:00Z</time>
      </trkpt>
      <trkpt lat="45.1797" lon="5.66248">
        <ele>694</ele>
        <time>2011-06-15T07:13:02Z</time>
      </trkpt>
      <trkpt lat="45.17973" lon="5.66242">
        <ele>694</ele>
        <time>2011-06-15T07:13:04Z</time>
      </trkpt>
      <trkpt lat="45.17977" lon="5.66236">
        <ele>694</ele>
        <time>2011-06-15T07:13:05Z</time>
      </trkpt>
      <trkpt lat="45.17979" lon="5.66227">
        <ele>693</ele>
        <time>2011-06-15T07:13:06Z</time>
      </trkpt>
      <trkpt lat="45.1798" lon="5.6621">
        <ele>691</ele>
        <time>2011-06-15T07:13:08Z</time>
      </trkpt>
      <trkpt lat="45.17982" lon="5.66202">
        <ele>690</ele>
        <time>2011-06-15T07:13:09Z</time>
      </trkpt>
      <trkpt lat="45.17981" lon="5.66194">
        <ele>690</ele>
        <time>2011-06-15T07:13:10Z</time>
      </trkpt>
      <trkpt lat="45.17982" lon="5.66184">
        <ele>689</ele>
        <time>2011-06-15T07:13:11Z</time>
      </trkpt>
      <trkpt lat="45.17983" lon="5.66176">
        <ele>689</ele>
        <time>2011-06-15T07:13:12Z</time>
      </trkpt>
      <trkpt lat="45.17984" lon="5.66166">
        <ele>688</ele>
        <time>2011-06-15T07:13:14Z</time>
      </trkpt>
      <trkpt lat="45.1799" lon="5.66155">
        <ele>690</ele>
        <time>2011-06-15T07:13:16Z</time>
      </trkpt>
      <trkpt lat="45.17994" lon="5.6615">
        <ele>690</ele>
        <time>2011-06-15T07:13:17Z</time>
      </trkpt>
      <trkpt lat="45.17997" lon="5.66141">
        <ele>689</ele>
        <time>2011-06-15T07:13:19Z</time>
      </trkpt>
      <trkpt lat="45.18001" lon="5.66136">
        <ele>688</ele>
        <time>2011-06-15T07:13:20Z</time>
      </trkpt>
      <trkpt lat="45.18004" lon="5.66131">
        <ele>689</ele>
        <time>2011-06-15T07:13:21Z</time>
      </trkpt>
      <trkpt lat="45.18007" lon="5.66117">
        <ele>686</ele>
        <time>2011-06-15T07:13:23Z</time>
      </trkpt>
      <trkpt lat="45.18008" lon="5.66109">
        <ele>686</ele>
        <time>2011-06-15T07:13:24Z</time>
      </trkpt>
      <trkpt lat="45.1801" lon="5.66097">
        <ele>687</ele>
        <time>2011-06-15T07:13:26Z</time>
      </trkpt>
      <trkpt lat="45.18012" lon="5.66088">
        <ele>685</ele>
        <time>2011-06-15T07:13:27Z</time>
      </trkpt>
      <trkpt lat="45.18013" lon="5.66081">
        <ele>684</ele>
        <time>2011-06-15T07:13:28Z</time>
      </trkpt>
      <trkpt lat="45.18015" lon="5.66071">
        <ele>685</ele>
        <time>2011-06-15T07:13:30Z</time>
      </trkpt>
      <trkpt lat="45.18017" lon="5.66064">
        <ele>685</ele>
        <time>2011-06-15T07:13:32Z</time>
      </trkpt>
      <trkpt lat="45.1802" lon="5.66057">
        <ele>684</ele>
        <time>2011-06-15T07:13:34Z</time>
      </trkpt>
      <trkpt lat="45.18023" lon="5.66049">
        <ele>683</ele>
        <time>2011-06-15T07:13:36Z</time>
      </trkpt>
      <trkpt lat="45.18028" lon="5.6604">
        <ele>682</ele>
        <time>2011-06-15T07:13:38Z</time>
      </trkpt>
      <trkpt lat="45.18035" lon="5.66032">
        <ele>683</ele>
        <time>2011-06-15T07:13:40Z</time>
      </trkpt>
      <trkpt lat="45.18041" lon="5.66029">
        <ele>683</ele>
        <time>2011-06-15T07:13:42Z</time>
      </trkpt>
      <trkpt lat="45.18048" lon="5.66028">
        <ele>683</ele>
        <time>2011-06-15T07:13:44Z</time>
      </trkpt>
      <trkpt lat="45.18053" lon="5.66028">
        <ele>683</ele>
        <time>2011-06-15T07:13:45Z</time>
      </trkpt>
      <trkpt lat="45.18062" lon="5.66033">
        <ele>682</ele>
        <time>2011-06-15T07:13:47Z</time>
      </trkpt>
      <trkpt lat="45.18074" lon="5.66038">
        <ele>680</ele>
        <time>2011-06-15T07:13:49Z</time>
      </trkpt>
      <trkpt lat="45.18082" lon="5.6604">
        <ele>680</ele>
        <time>2011-06-15T07:13:50Z</time>
      </trkpt>
      <trkpt lat="45.18088" lon="5.66045">
        <ele>678</ele>
        <time>2011-06-15T07:13:51Z</time>
      </trkpt>
      <trkpt lat="45.18095" lon="5.6605">
        <ele>678</ele>
        <time>2011-06-15T07:13:52Z</time>
      </trkpt>
      <trkpt lat="45.18104" lon="5.66053">
        <ele>679</ele>
        <time>2011-06-15T07:13:53Z</time>
      </trkpt>
      <trkpt lat="45.18109" lon="5.66057">
        <ele>678</ele>
        <time>2011-06-15T07:13:54Z</time>
      </trkpt>
      <trkpt lat="45.18115" lon="5.6606">
        <ele>678</ele>
        <time>2011-06-15T07:13:55Z</time>
      </trkpt>
      <trkpt lat="45.18122" lon="5.66064">
        <ele>677</ele>
        <time>2011-06-15T07:13:56Z</time>
      </trkpt>
      <trkpt lat="45.1813" lon="5.66072">
        <ele>677</ele>
        <time>2011-06-15T07:13:57Z</time>
      </trkpt>
      <trkpt lat="45.18136" lon="5.6608">
        <ele>678</ele>
        <time>2011-06-15T07:13:58Z</time>
      </trkpt>
      <trkpt lat="45.18141" lon="5.66087">
        <ele>677</ele>
        <time>2011-06-15T07:13:59Z</time>
      </trkpt>
      <trkpt lat="45.18147" lon="5.66094">
        <ele>677</ele>
        <time>2011-06-15T07:14:00Z</time>
      </trkpt>
      <trkpt lat="45.18151" lon="5.661">
        <ele>677</ele>
        <time>2011-06-15T07:14:01Z</time>
      </trkpt>
      <trkpt lat="45.18157" lon="5.66107">
        <ele>678</ele>
        <time>2011-06-15T07:14:02Z</time>
      </trkpt>
      <trkpt lat="45.18163" lon="5.66115">
        <ele>678</ele>
        <time>2011-06-15T07:14:03Z</time>
      </trkpt>
      <trkpt lat="45.18169" lon="5.66124">
        <ele>677</ele>
        <time>2011-06-15T07:14:04Z</time>
      </trkpt>
      <trkpt lat="45.18175" lon="5.66132">
        <ele>677</ele>
        <time>2011-06-15T07:14:05Z</time>
      </trkpt>
      <trkpt lat="45.1818" lon="5.6614">
        <ele>676</ele>
        <time>2011-06-15T07:14:06Z</time>
      </trkpt>
      <trkpt lat="45.18184" lon="5.66146">
        <ele>677</ele>
        <time>2011-06-15T07:14:07Z</time>
      </trkpt>
      <trkpt lat="45.18189" lon="5.66152">
        <ele>677</ele>
        <time>2011-06-15T07:14:08Z</time>
      </trkpt>
      <trkpt lat="45.18191" lon="5.6616">
        <ele>677</ele>
        <time>2011-06-15T07:14:09Z</time>
      </trkpt>
      <trkpt lat="45.18193" lon="5.66166">
        <ele>677</ele>
        <time>2011-06-15T07:14:10Z</time>
      </trkpt>
      <trkpt lat="45.18196" lon="5.66172">
        <ele>677</ele>
        <time>2011-06-15T07:14:11Z</time>
      </trkpt>
      <trkpt lat="45.18199" lon="5.66177">
        <ele>677</ele>
        <time>2011-06-15T07:14:12Z</time>
      </trkpt>
      <trkpt lat="45.18202" lon="5.66184">
        <ele>677</ele>
        <time>2011-06-15T07:14:15Z</time>
      </trkpt>
      <trkpt lat="45.18209" lon="5.66186">
        <ele>676</ele>
        <time>2011-06-15T07:14:21Z</time>
      </trkpt>
      <trkpt lat="45.18214" lon="5.66188">
        <ele>676</ele>
        <time>2011-06-15T07:14:23Z</time>
      </trkpt>
      <trkpt lat="45.18221" lon="5.66188">
        <ele>676</ele>
        <time>2011-06-15T07:14:25Z</time>
      </trkpt>
      <trkpt lat="45.18226" lon="5.66191">
        <ele>675</ele>
        <time>2011-06-15T07:14:26Z</time>
      </trkpt>
      <trkpt lat="45.1823" lon="5.66188">
        <ele>675</ele>
        <time>2011-06-15T07:14:27Z</time>
      </trkpt>
      <trkpt lat="45.18239" lon="5.66188">
        <ele>675</ele>
        <time>2011-06-15T07:14:29Z</time>
      </trkpt>
      <trkpt lat="45.18244" lon="5.66186">
        <ele>675</ele>
        <time>2011-06-15T07:14:31Z</time>
      </trkpt>
      <trkpt lat="45.18249" lon="5.66181">
        <ele>675</ele>
        <time>2011-06-15T07:14:32Z</time>
      </trkpt>
      <trkpt lat="45.18258" lon="5.66179">
        <ele>675</ele>
        <time>2011-06-15T07:14:34Z</time>
      </trkpt>
      <trkpt lat="45.18261" lon="5.66171">
        <ele>675</ele>
        <time>2011-06-15T07:14:36Z</time>
      </trkpt>
      <trkpt lat="45.18266" lon="5.66168">
        <ele>675</ele>
        <time>2011-06-15T07:14:37Z</time>
      </trkpt>
      <trkpt lat="45.18266" lon="5.66174">
        <ele>675</ele>
        <time>2011-06-15T07:14:39Z</time>
      </trkpt>
      <trkpt lat="45.18266" lon="5.66174">
        <ele>675</ele>
        <time>2011-06-15T07:14:39Z</time>
      </trkpt>
      <trkpt lat="45.18266" lon="5.66174">
        <ele>674</ele>
        <time>2011-06-15T07:14:41Z</time>
      </trkpt>
      <trkpt lat="45.18268" lon="5.66166">
        <ele>675</ele>
        <time>2011-06-15T07:14:42Z</time>
      </trkpt>
      <trkpt lat="45.18278" lon="5.66154">
        <ele>675</ele>
        <time>2011-06-15T07:14:44Z</time>
      </trkpt>
      <trkpt lat="45.1828" lon="5.66147">
        <ele>675</ele>
        <time>2011-06-15T07:14:46Z</time>
      </trkpt>
      <trkpt lat="45.18281" lon="5.66139">
        <ele>673</ele>
        <time>2011-06-15T07:14:51Z</time>
      </trkpt>
      <trkpt lat="45.18285" lon="5.6613">
        <ele>673</ele>
        <time>2011-06-15T07:14:52Z</time>
      </trkpt>
      <trkpt lat="45.18292" lon="5.66132">
        <ele>671</ele>
        <time>2011-06-15T07:14:55Z</time>
      </trkpt>
      <trkpt lat="45.183" lon="5.66132">
        <ele>669</ele>
        <time>2011-06-15T07:14:57Z</time>
      </trkpt>
      <trkpt lat="45.18304" lon="5.66124">
        <ele>669</ele>
        <time>2011-06-15T07:15:01Z</time>
      </trkpt>
      <trkpt lat="45.18307" lon="5.66116">
        <ele>669</ele>
        <time>2011-06-15T07:15:04Z</time>
      </trkpt>
      <trkpt lat="45.1831" lon="5.66105">
        <ele>668</ele>
        <time>2011-06-15T07:15:05Z</time>
      </trkpt>
      <trkpt lat="45.18312" lon="5.66098">
        <ele>667</ele>
        <time>2011-06-15T07:15:06Z</time>
      </trkpt>
      <trkpt lat="45.18317" lon="5.66087">
        <ele>666</ele>
        <time>2011-06-15T07:15:09Z</time>
      </trkpt>
      <trkpt lat="45.18323" lon="5.66082">
        <ele>665</ele>
        <time>2011-06-15T07:15:10Z</time>
      </trkpt>
      <trkpt lat="45.18331" lon="5.66078">
        <ele>665</ele>
        <time>2011-06-15T07:15:11Z</time>
      </trkpt>
      <trkpt lat="45.18336" lon="5.66076">
        <ele>664</ele>
        <time>2011-06-15T07:15:12Z</time>
      </trkpt>
      <trkpt lat="45.18342" lon="5.66075">
        <ele>661</ele>
        <time>2011-06-15T07:15:14Z</time>
      </trkpt>
      <trkpt lat="45.18348" lon="5.66075">
        <ele>661</ele>
        <time>2011-06-15T07:15:16Z</time>
      </trkpt>
      <trkpt lat="45.18353" lon="5.66075">
        <ele>661</ele>
        <time>2011-06-15T07:15:17Z</time>
      </trkpt>
      <trkpt lat="45.1836" lon="5.66074">
        <ele>660</ele>
        <time>2011-06-15T07:15:20Z</time>
      </trkpt>
      <trkpt lat="45.18365" lon="5.66076">
        <ele>660</ele>
        <time>2011-06-15T07:15:22Z</time>
      </trkpt>
      <trkpt lat="45.1837" lon="5.66075">
        <ele>658</ele>
        <time>2011-06-15T07:15:24Z</time>
      </trkpt>
      <trkpt lat="45.18377" lon="5.66084">
        <ele>657</ele>
        <time>2011-06-15T07:15:26Z</time>
      </trkpt>
      <trkpt lat="45.18376" lon="5.66093">
        <ele>656</ele>
        <time>2011-06-15T07:15:28Z</time>
      </trkpt>
      <trkpt lat="45.1838" lon="5.66105">
        <ele>656</ele>
        <time>2011-06-15T07:15:30Z</time>
      </trkpt>
      <trkpt lat="45.18384" lon="5.66114">
        <ele>656</ele>
        <time>2011-06-15T07:15:32Z</time>
      </trkpt>
      <trkpt lat="45.18389" lon="5.6612">
        <ele>656</ele>
        <time>2011-06-15T07:15:33Z</time>
      </trkpt>
      <trkpt lat="45.18395" lon="5.66122">
        <ele>657</ele>
        <time>2011-06-15T07:15:34Z</time>
      </trkpt>
      <trkpt lat="45.18402" lon="5.66123">
        <ele>656</ele>
        <time>2011-06-15T07:15:35Z</time>
      </trkpt>
      <trkpt lat="45.18406" lon="5.66123">
        <ele>653</ele>
        <time>2011-06-15T07:15:37Z</time>
      </trkpt>
      <trkpt lat="45.18413" lon="5.66127">
        <ele>651</ele>
        <time>2011-06-15T07:15:39Z</time>
      </trkpt>
      <trkpt lat="45.18419" lon="5.6613">
        <ele>649</ele>
        <time>2011-06-15T07:15:41Z</time>
      </trkpt>
      <trkpt lat="45.18424" lon="5.66131">
        <ele>649</ele>
        <time>2011-06-15T07:15:43Z</time>
      </trkpt>
      <trkpt lat="45.18428" lon="5.66127">
        <ele>648</ele>
        <time>2011-06-15T07:15:44Z</time>
      </trkpt>
      <trkpt lat="45.18434" lon="5.66117">
        <ele>648</ele>
        <time>2011-06-15T07:15:46Z</time>
      </trkpt>
      <trkpt lat="45.18438" lon="5.66109">
        <ele>647</ele>
        <time>2011-06-15T07:15:47Z</time>
      </trkpt>
      <trkpt lat="45.18438" lon="5.66096">
        <ele>645</ele>
        <time>2011-06-15T07:15:49Z</time>
      </trkpt>
      <trkpt lat="45.18436" lon="5.66087">
        <ele>642</ele>
        <time>2011-06-15T07:15:50Z</time>
      </trkpt>
      <trkpt lat="45.18435" lon="5.66078">
        <ele>640</ele>
        <time>2011-06-15T07:15:52Z</time>
      </trkpt>
      <trkpt lat="45.18434" lon="5.66071">
        <ele>638</ele>
        <time>2011-06-15T07:15:54Z</time>
      </trkpt>
      <trkpt lat="45.1844" lon="5.66064">
        <ele>637</ele>
        <time>2011-06-15T07:15:56Z</time>
      </trkpt>
      <trkpt lat="45.18444" lon="5.66058">
        <ele>636</ele>
        <time>2011-06-15T07:15:57Z</time>
      </trkpt>
      <trkpt lat="45.18449" lon="5.66054">
        <ele>635</ele>
        <time>2011-06-15T07:15:58Z</time>
      </trkpt>
      <trkpt lat="45.18456" lon="5.6605">
        <ele>633</ele>
        <time>2011-06-15T07:15:59Z</time>
      </trkpt>
      <trkpt lat="45.18461" lon="5.66051">
        <ele>630</ele>
        <time>2011-06-15T07:16:01Z</time>
      </trkpt>
      <trkpt lat="45.18464" lon="5.66046">
        <ele>629</ele>
        <time>2011-06-15T07:16:02Z</time>
      </trkpt>
      <trkpt lat="45.18467" lon="5.6604">
        <ele>627</ele>
        <time>2011-06-15T07:16:04Z</time>
      </trkpt>
      <trkpt lat="45.18471" lon="5.66037">
        <ele>625</ele>
        <time>2011-06-15T07:16:06Z</time>
      </trkpt>
      <trkpt lat="45.18479" lon="5.66034">
        <ele>623</ele>
        <time>2011-06-15T07:16:08Z</time>
      </trkpt>
      <trkpt lat="45.18484" lon="5.66035">
        <ele>621</ele>
        <time>2011-06-15T07:16:09Z</time>
      </trkpt>
      <trkpt lat="45.18489" lon="5.66044">
        <ele>617</ele>
        <time>2011-06-15T07:16:11Z</time>
      </trkpt>
      <trkpt lat="45.18494" lon="5.6605">
        <ele>615</ele>
        <time>2011-06-15T07:16:12Z</time>
      </trkpt>
      <trkpt lat="45.18504" lon="5.66057">
        <ele>614</ele>
        <time>2011-06-15T07:16:14Z</time>
      </trkpt>
      <trkpt lat="45.18506" lon="5.66067">
        <ele>613</ele>
        <time>2011-06-15T07:16:15Z</time>
      </trkpt>
      <trkpt lat="45.18512" lon="5.66075">
        <ele>611</ele>
        <time>2011-06-15T07:16:16Z</time>
      </trkpt>
      <trkpt lat="45.18516" lon="5.66081">
        <ele>610</ele>
        <time>2011-06-15T07:16:17Z</time>
      </trkpt>
      <trkpt lat="45.1852" lon="5.66089">
        <ele>608</ele>
        <time>2011-06-15T07:16:18Z</time>
      </trkpt>
      <trkpt lat="45.18522" lon="5.66095">
        <ele>606</ele>
        <time>2011-06-15T07:16:19Z</time>
      </trkpt>
      <trkpt lat="45.18524" lon="5.66103">
        <ele>605</ele>
        <time>2011-06-15T07:16:20Z</time>
      </trkpt>
      <trkpt lat="45.18526" lon="5.66113">
        <ele>605</ele>
        <time>2011-06-15T07:16:21Z</time>
      </trkpt>
      <trkpt lat="45.18529" lon="5.66124">
        <ele>605</ele>
        <time>2011-06-15T07:16:23Z</time>
      </trkpt>
      <trkpt lat="45.18529" lon="5.66131">
        <ele>604</ele>
        <time>2011-06-15T07:16:25Z</time>
      </trkpt>
      <trkpt lat="45.18524" lon="5.66135">
        <ele>604</ele>
        <time>2011-06-15T07:16:27Z</time>
      </trkpt>
      <trkpt lat="45.1852" lon="5.6614">
        <ele>604</ele>
        <time>2011-06-15T07:16:29Z</time>
      </trkpt>
      <trkpt lat="45.18514" lon="5.66148">
        <ele>603</ele>
        <time>2011-06-15T07:16:31Z</time>
      </trkpt>
      <trkpt lat="45.18508" lon="5.66154">
        <ele>603</ele>
        <time>2011-06-15T07:16:34Z</time>
      </trkpt>
      <trkpt lat="45.18506" lon="5.6616">
        <ele>602</ele>
        <time>2011-06-15T07:16:36Z</time>
      </trkpt>
      <trkpt lat="45.1851" lon="5.66162">
        <ele>601</ele>
        <time>2011-06-15T07:16:37Z</time>
      </trkpt>
      <trkpt lat="45.18513" lon="5.6617">
        <ele>600</ele>
        <time>2011-06-15T07:16:39Z</time>
      </trkpt>
      <trkpt lat="45.18515" lon="5.66178">
        <ele>598</ele>
        <time>2011-06-15T07:16:41Z</time>
      </trkpt>
      <trkpt lat="45.18516" lon="5.66186">
        <ele>595</ele>
        <time>2011-06-15T07:16:44Z</time>
      </trkpt>
      <trkpt lat="45.18515" lon="5.66192">
        <ele>595</ele>
        <time>2011-06-15T07:16:46Z</time>
      </trkpt>
      <trkpt lat="45.18513" lon="5.66202">
        <ele>594</ele>
        <time>2011-06-15T07:16:49Z</time>
      </trkpt>
      <trkpt lat="45.18515" lon="5.6621">
        <ele>594</ele>
        <time>2011-06-15T07:16:52Z</time>
      </trkpt>
      <trkpt lat="45.18516" lon="5.66229">
        <ele>593</ele>
        <time>2011-06-15T07:16:56Z</time>
      </trkpt>
      <trkpt lat="45.1852" lon="5.66236">
        <ele>591</ele>
        <time>2011-06-15T07:16:57Z</time>
      </trkpt>
      <trkpt lat="45.18523" lon="5.66242">
        <ele>589</ele>
        <time>2011-06-15T07:16:58Z</time>
      </trkpt>
      <trkpt lat="45.18526" lon="5.66251">
        <ele>586</ele>
        <time>2011-06-15T07:16:59Z</time>
      </trkpt>
      <trkpt lat="45.18529" lon="5.66261">
        <ele>585</ele>
        <time>2011-06-15T07:17:00Z</time>
      </trkpt>
      <trkpt lat="45.18535" lon="5.66267">
        <ele>584</ele>
        <time>2011-06-15T07:17:01Z</time>
      </trkpt>
      <trkpt lat="45.1854" lon="5.66275">
        <ele>583</ele>
        <time>2011-06-15T07:17:03Z</time>
      </trkpt>
      <trkpt lat="45.18544" lon="5.66279">
        <ele>583</ele>
        <time>2011-06-15T07:17:04Z</time>
      </trkpt>
      <trkpt lat="45.18557" lon="5.66288">
        <ele>582</ele>
        <time>2011-06-15T07:17:07Z</time>
      </trkpt>
      <trkpt lat="45.18557" lon="5.66288">
        <ele>582</ele>
        <time>2011-06-15T07:17:07Z</time>
      </trkpt>
      <trkpt lat="45.18557" lon="5.66288">
        <ele>582</ele>
        <time>2011-06-15T07:17:07Z</time>
      </trkpt>
      <trkpt lat="45.18559" lon="5.66296">
        <ele>582</ele>
        <time>2011-06-15T07:17:08Z</time>
      </trkpt>
      <trkpt lat="45.18565" lon="5.66298">
        <ele>582</ele>
        <time>2011-06-15T07:17:09Z</time>
      </trkpt>
      <trkpt lat="45.18569" lon="5.66305">
        <ele>581</ele>
        <time>2011-06-15T07:17:10Z</time>
      </trkpt>
      <trkpt lat="45.18572" lon="5.66312">
        <ele>581</ele>
        <time>2011-06-15T07:17:11Z</time>
      </trkpt>
      <trkpt lat="45.18574" lon="5.66318">
        <ele>581</ele>
        <time>2011-06-15T07:17:12Z</time>
      </trkpt>
      <trkpt lat="45.18579" lon="5.66326">
        <ele>581</ele>
        <time>2011-06-15T07:17:14Z</time>
      </trkpt>
      <trkpt lat="45.18582" lon="5.66333">
        <ele>580</ele>
        <time>2011-06-15T07:17:16Z</time>
      </trkpt>
      <trkpt lat="45.18583" lon="5.6634">
        <ele>580</ele>
        <time>2011-06-15T07:17:18Z</time>
      </trkpt>
      <trkpt lat="45.18587" lon="5.66336">
        <ele>579</ele>
        <time>2011-06-15T07:17:19Z</time>
      </trkpt>
      <trkpt lat="45.18592" lon="5.66336">
        <ele>579</ele>
        <time>2011-06-15T07:17:20Z</time>
      </trkpt>
      <trkpt lat="45.186" lon="5.66337">
        <ele>576</ele>
        <time>2011-06-15T07:17:22Z</time>
      </trkpt>
      <trkpt lat="45.18605" lon="5.66333">
        <ele>574</ele>
        <time>2011-06-15T07:17:23Z</time>
      </trkpt>
      <trkpt lat="45.18609" lon="5.66331">
        <ele>573</ele>
        <time>2011-06-15T07:17:24Z</time>
      </trkpt>
      <trkpt lat="45.18614" lon="5.66328">
        <ele>572</ele>
        <time>2011-06-15T07:17:26Z</time>
      </trkpt>
      <trkpt lat="45.18619" lon="5.66331">
        <ele>572</ele>
        <time>2011-06-15T07:17:28Z</time>
      </trkpt>
      <trkpt lat="45.18624" lon="5.66328">
        <ele>572</ele>
        <time>2011-06-15T07:17:30Z</time>
      </trkpt>
      <trkpt lat="45.1863" lon="5.66324">
        <ele>572</ele>
        <time>2011-06-15T07:17:31Z</time>
      </trkpt>
      <trkpt lat="45.18635" lon="5.66324">
        <ele>572</ele>
        <time>2011-06-15T07:17:34Z</time>
      </trkpt>
      <trkpt lat="45.1864" lon="5.66316">
        <ele>571</ele>
        <time>2011-06-15T07:17:36Z</time>
      </trkpt>
      <trkpt lat="45.18644" lon="5.6631">
        <ele>570</ele>
        <time>2011-06-15T07:17:37Z</time>
      </trkpt>
      <trkpt lat="45.1865" lon="5.66312">
        <ele>569</ele>
        <time>2011-06-15T07:17:39Z</time>
      </trkpt>
      <trkpt lat="45.18659" lon="5.66309">
        <ele>569</ele>
        <time>2011-06-15T07:17:41Z</time>
      </trkpt>
      <trkpt lat="45.18665" lon="5.66308">
        <ele>569</ele>
        <time>2011-06-15T07:17:43Z</time>
      </trkpt>
      <trkpt lat="45.18672" lon="5.66311">
        <ele>569</ele>
        <time>2011-06-15T07:17:45Z</time>
      </trkpt>
      <trkpt lat="45.18677" lon="5.66314">
        <ele>569</ele>
        <time>2011-06-15T07:17:47Z</time>
      </trkpt>
      <trkpt lat="45.18685" lon="5.66318">
        <ele>569</ele>
        <time>2011-06-15T07:17:49Z</time>
      </trkpt>
      <trkpt lat="45.18688" lon="5.66323">
        <ele>568</ele>
        <time>2011-06-15T07:17:50Z</time>
      </trkpt>
      <trkpt lat="45.18693" lon="5.66324">
        <ele>568</ele>
        <time>2011-06-15T07:17:51Z</time>
      </trkpt>
      <trkpt lat="45.187" lon="5.66327">
        <ele>567</ele>
        <time>2011-06-15T07:17:53Z</time>
      </trkpt>
      <trkpt lat="45.18704" lon="5.66332">
        <ele>564</ele>
        <time>2011-06-15T07:17:54Z</time>
      </trkpt>
      <trkpt lat="45.18709" lon="5.66333">
        <ele>563</ele>
        <time>2011-06-15T07:17:55Z</time>
      </trkpt>
      <trkpt lat="45.18714" lon="5.66332">
        <ele>562</ele>
        <time>2011-06-15T07:17:56Z</time>
      </trkpt>
      <trkpt lat="45.18721" lon="5.66334">
        <ele>559</ele>
        <time>2011-06-15T07:17:58Z</time>
      </trkpt>
      <trkpt lat="45.18728" lon="5.66334">
        <ele>558</ele>
        <time>2011-06-15T07:18:00Z</time>
      </trkpt>
      <trkpt lat="45.18735" lon="5.66336">
        <ele>556</ele>
        <time>2011-06-15T07:18:02Z</time>
      </trkpt>
      <trkpt lat="45.1874" lon="5.66334">
        <ele>555</ele>
        <time>2011-06-15T07:18:04Z</time>
      </trkpt>
      <trkpt lat="45.18749" lon="5.6633">
        <ele>555</ele>
        <time>2011-06-15T07:18:06Z</time>
      </trkpt>
      <trkpt lat="45.18753" lon="5.66326">
        <ele>554</ele>
        <time>2011-06-15T07:18:07Z</time>
      </trkpt>
      <trkpt lat="45.18758" lon="5.66325">
        <ele>549</ele>
        <time>2011-06-15T07:18:08Z</time>
      </trkpt>
      <trkpt lat="45.18766" lon="5.66321">
        <ele>546</ele>
        <time>2011-06-15T07:18:10Z</time>
      </trkpt>
      <trkpt lat="45.18771" lon="5.66318">
        <ele>545</ele>
        <time>2011-06-15T07:18:13Z</time>
      </trkpt>
      <trkpt lat="45.18776" lon="5.66315">
        <ele>544</ele>
        <time>2011-06-15T07:18:18Z</time>
      </trkpt>
      <trkpt lat="45.18781" lon="5.66313">
        <ele>542</ele>
        <time>2011-06-15T07:18:21Z</time>
      </trkpt>
      <trkpt lat="45.18786" lon="5.66309">
        <ele>540</ele>
        <time>2011-06-15T07:18:23Z</time>
      </trkpt>
      <trkpt lat="45.1879" lon="5.66306">
        <ele>538</ele>
        <time>2011-06-15T07:18:24Z</time>
      </trkpt>
      <trkpt lat="45.18798" lon="5.66302">
        <ele>537</ele>
        <time>2011-06-15T07:18:26Z</time>
      </trkpt>
      <trkpt lat="45.18802" lon="5.663">
        <ele>537</ele>
        <time>2011-06-15T07:18:27Z</time>
      </trkpt>
      <trkpt lat="45.1881" lon="5.66298">
        <ele>537</ele>
        <time>2011-06-15T07:18:29Z</time>
      </trkpt>
      <trkpt lat="45.18816" lon="5.66297">
        <ele>536</ele>
        <time>2011-06-15T07:18:31Z</time>
      </trkpt>
      <trkpt lat="45.18823" lon="5.66299">
        <ele>534</ele>
        <time>2011-06-15T07:18:34Z</time>
      </trkpt>
      <trkpt lat="45.18831" lon="5.66302">
        <ele>532</ele>
        <time>2011-06-15T07:18:36Z</time>
      </trkpt>
      <trkpt lat="45.18834" lon="5.66306">
        <ele>532</ele>
        <time>2011-06-15T07:18:37Z</time>
      </trkpt>
      <trkpt lat="45.18839" lon="5.66306">
        <ele>532</ele>
        <time>2011-06-15T07:18:38Z</time>
      </trkpt>
      <trkpt lat="45.18844" lon="5.66308">
        <ele>531</ele>
        <time>2011-06-15T07:18:39Z</time>
      </trkpt>
      <trkpt lat="45.18849" lon="5.66315">
        <ele>530</ele>
        <time>2011-06-15T07:18:41Z</time>
      </trkpt>
      <trkpt lat="45.18854" lon="5.66318">
        <ele>531</ele>
        <time>2011-06-15T07:18:44Z</time>
      </trkpt>
      <trkpt lat="45.18859" lon="5.66321">
        <ele>531</ele>
        <time>2011-06-15T07:18:50Z</time>
      </trkpt>
      <trkpt lat="45.18864" lon="5.66323">
        <ele>529</ele>
        <time>2011-06-15T07:18:54Z</time>
      </trkpt>
      <trkpt lat="45.18869" lon="5.66325">
        <ele>526</ele>
        <time>2011-06-15T07:18:58Z</time>
      </trkpt>
      <trkpt lat="45.18874" lon="5.66324">
        <ele>526</ele>
        <time>2011-06-15T07:19:00Z</time>
      </trkpt>
      <trkpt lat="45.18879" lon="5.66323">
        <ele>525</ele>
        <time>2011-06-15T07:19:02Z</time>
      </trkpt>
      <trkpt lat="45.18883" lon="5.66319">
        <ele>524</ele>
        <time>2011-06-15T07:19:04Z</time>
      </trkpt>
      <trkpt lat="45.1889" lon="5.66318">
        <ele>523</ele>
        <time>2011-06-15T07:19:06Z</time>
      </trkpt>
      <trkpt lat="45.18898" lon="5.66312">
        <ele>524</ele>
        <time>2011-06-15T07:19:08Z</time>
      </trkpt>
      <trkpt lat="45.18906" lon="5.66309">
        <ele>525</ele>
        <time>2011-06-15T07:19:10Z</time>
      </trkpt>
      <trkpt lat="45.18913" lon="5.66303">
        <ele>525</ele>
        <time>2011-06-15T07:19:12Z</time>
      </trkpt>
      <trkpt lat="45.18919" lon="5.663">
        <ele>524</ele>
        <time>2011-06-15T07:19:14Z</time>
      </trkpt>
      <trkpt lat="45.18927" lon="5.66295">
        <ele>524</ele>
        <time>2011-06-15T07:19:16Z</time>
      </trkpt>
      <trkpt lat="45.18932" lon="5.6629">
        <ele>522</ele>
        <time>2011-06-15T07:19:17Z</time>
      </trkpt>
      <trkpt lat="45.18936" lon="5.66289">
        <ele>521</ele>
        <time>2011-06-15T07:19:18Z</time>
      </trkpt>
      <trkpt lat="45.18941" lon="5.66286">
        <ele>521</ele>
        <time>2011-06-15T07:19:19Z</time>
      </trkpt>
      <trkpt lat="45.18946" lon="5.66286">
        <ele>520</ele>
        <time>2011-06-15T07:19:20Z</time>
      </trkpt>
      <trkpt lat="45.18956" lon="5.66284">
        <ele>520</ele>
        <time>2011-06-15T07:19:22Z</time>
      </trkpt>
      <trkpt lat="45.18961" lon="5.66281">
        <ele>520</ele>
        <time>2011-06-15T07:19:23Z</time>
      </trkpt>
      <trkpt lat="45.18967" lon="5.66277">
        <ele>521</ele>
        <time>2011-06-15T07:19:24Z</time>
      </trkpt>
      <trkpt lat="45.18972" lon="5.66275">
        <ele>521</ele>
        <time>2011-06-15T07:19:25Z</time>
      </trkpt>
      <trkpt lat="45.18977" lon="5.66273">
        <ele>519</ele>
        <time>2011-06-15T07:19:26Z</time>
      </trkpt>
      <trkpt lat="45.18986" lon="5.66275">
        <ele>517</ele>
        <time>2011-06-15T07:19:28Z</time>
      </trkpt>
      <trkpt lat="45.18991" lon="5.66275">
        <ele>516</ele>
        <time>2011-06-15T07:19:29Z</time>
      </trkpt>
      <trkpt lat="45.18998" lon="5.66276">
        <ele>516</ele>
        <time>2011-06-15T07:19:31Z</time>
      </trkpt>
      <trkpt lat="45.19005" lon="5.66274">
        <ele>514</ele>
        <time>2011-06-15T07:19:33Z</time>
      </trkpt>
      <trkpt lat="45.19011" lon="5.66273">
        <ele>512</ele>
        <time>2011-06-15T07:19:35Z</time>
      </trkpt>
      <trkpt lat="45.19017" lon="5.66268">
        <ele>510</ele>
        <time>2011-06-15T07:19:38Z</time>
      </trkpt>
      <trkpt lat="45.19023" lon="5.66262">
        <ele>508</ele>
        <time>2011-06-15T07:19:41Z</time>
      </trkpt>
      <trkpt lat="45.1903" lon="5.66262">
        <ele>506</ele>
        <time>2011-06-15T07:19:44Z</time>
      </trkpt>
      <trkpt lat="45.19034" lon="5.66265">
        <ele>505</ele>
        <time>2011-06-15T07:19:46Z</time>
      </trkpt>
      <trkpt lat="45.19046" lon="5.66266">
        <ele>504</ele>
        <time>2011-06-15T07:19:49Z</time>
      </trkpt>
      <trkpt lat="45.19054" lon="5.66265">
        <ele>502</ele>
        <time>2011-06-15T07:19:51Z</time>
      </trkpt>
      <trkpt lat="45.19059" lon="5.66263">
        <ele>501</ele>
        <time>2011-06-15T07:19:52Z</time>
      </trkpt>
      <trkpt lat="45.19066" lon="5.6626">
        <ele>499</ele>
        <time>2011-06-15T07:19:54Z</time>
      </trkpt>
      <trkpt lat="45.1907" lon="5.66259">
        <ele>499</ele>
        <time>2011-06-15T07:19:55Z</time>
      </trkpt>
      <trkpt lat="45.19076" lon="5.66256">
        <ele>498</ele>
        <time>2011-06-15T07:19:56Z</time>
      </trkpt>
      <trkpt lat="45.19083" lon="5.66253">
        <ele>497</ele>
        <time>2011-06-15T07:19:58Z</time>
      </trkpt>
      <trkpt lat="45.19091" lon="5.66251">
        <ele>496</ele>
        <time>2011-06-15T07:20:00Z</time>
      </trkpt>
      <trkpt lat="45.19096" lon="5.66247">
        <ele>495</ele>
        <time>2011-06-15T07:20:02Z</time>
      </trkpt>
      <trkpt lat="45.191" lon="5.66242">
        <ele>495</ele>
        <time>2011-06-15T07:20:04Z</time>
      </trkpt>
      <trkpt lat="45.19104" lon="5.66238">
        <ele>495</ele>
        <time>2011-06-15T07:20:06Z</time>
      </trkpt>
      <trkpt lat="45.1911" lon="5.66233">
        <ele>495</ele>
        <time>2011-06-15T07:20:08Z</time>
      </trkpt>
      <trkpt lat="45.19114" lon="5.66231">
        <ele>495</ele>
        <time>2011-06-15T07:20:10Z</time>
      </trkpt>
      <trkpt lat="45.19119" lon="5.6623">
        <ele>495</ele>
        <time>2011-06-15T07:20:12Z</time>
      </trkpt>
      <trkpt lat="45.19125" lon="5.66229">
        <ele>495</ele>
        <time>2011-06-15T07:20:13Z</time>
      </trkpt>
      <trkpt lat="45.19134" lon="5.6623">
        <ele>494</ele>
        <time>2011-06-15T07:20:15Z</time>
      </trkpt>
      <trkpt lat="45.19142" lon="5.6623">
        <ele>493</ele>
        <time>2011-06-15T07:20:17Z</time>
      </trkpt>
      <trkpt lat="45.19148" lon="5.66234">
        <ele>491</ele>
        <time>2011-06-15T07:20:19Z</time>
      </trkpt>
      <trkpt lat="45.19154" lon="5.66237">
        <ele>491</ele>
        <time>2011-06-15T07:20:21Z</time>
      </trkpt>
      <trkpt lat="45.1916" lon="5.66241">
        <ele>490</ele>
        <time>2011-06-15T07:20:23Z</time>
      </trkpt>
      <trkpt lat="45.19162" lon="5.66247">
        <ele>489</ele>
        <time>2011-06-15T07:20:26Z</time>
      </trkpt>
      <trkpt lat="45.19157" lon="5.66253">
        <ele>485</ele>
        <time>2011-06-15T07:20:30Z</time>
      </trkpt>
      <trkpt lat="45.19153" lon="5.66259">
        <ele>484</ele>
        <time>2011-06-15T07:20:32Z</time>
      </trkpt>
      <trkpt lat="45.19149" lon="5.66263">
        <ele>483</ele>
        <time>2011-06-15T07:20:34Z</time>
      </trkpt>
      <trkpt lat="45.19143" lon="5.66267">
        <ele>482</ele>
        <time>2011-06-15T07:20:36Z</time>
      </trkpt>
      <trkpt lat="45.19137" lon="5.66272">
        <ele>481</ele>
        <time>2011-06-15T07:20:38Z</time>
      </trkpt>
      <trkpt lat="45.19133" lon="5.66275">
        <ele>481</ele>
        <time>2011-06-15T07:20:39Z</time>
      </trkpt>
      <trkpt lat="45.19125" lon="5.6628">
        <ele>480</ele>
        <time>2011-06-15T07:20:41Z</time>
      </trkpt>
      <trkpt lat="45.19119" lon="5.66284">
        <ele>480</ele>
        <time>2011-06-15T07:20:42Z</time>
      </trkpt>
      <trkpt lat="45.19114" lon="5.66287">
        <ele>479</ele>
        <time>2011-06-15T07:20:43Z</time>
      </trkpt>
      <trkpt lat="45.1911" lon="5.66291">
        <ele>479</ele>
        <time>2011-06-15T07:20:44Z</time>
      </trkpt>
      <trkpt lat="45.19105" lon="5.66296">
        <ele>478</ele>
        <time>2011-06-15T07:20:45Z</time>
      </trkpt>
      <trkpt lat="45.19102" lon="5.66301">
        <ele>478</ele>
        <time>2011-06-15T07:20:46Z</time>
      </trkpt>
      <trkpt lat="45.19097" lon="5.66308">
        <ele>478</ele>
        <time>2011-06-15T07:20:47Z</time>
      </trkpt>
      <trkpt lat="45.19089" lon="5.66321">
        <ele>478</ele>
        <time>2011-06-15T07:20:49Z</time>
      </trkpt>
      <trkpt lat="45.19082" lon="5.66332">
        <ele>477</ele>
        <time>2011-06-15T07:20:51Z</time>
      </trkpt>
      <trkpt lat="45.19078" lon="5.66339">
        <ele>477</ele>
        <time>2011-06-15T07:20:52Z</time>
      </trkpt>
      <trkpt lat="45.19075" lon="5.66345">
        <ele>476</ele>
        <time>2011-06-15T07:20:53Z</time>
      </trkpt>
      <trkpt lat="45.19072" lon="5.66352">
        <ele>476</ele>
        <time>2011-06-15T07:20:54Z</time>
      </trkpt>
      <trkpt lat="45.19069" lon="5.66359">
        <ele>476</ele>
        <time>2011-06-15T07:20:55Z</time>
      </trkpt>
      <trkpt lat="45.19065" lon="5.6637">
        <ele>476</ele>
        <time>2011-06-15T07:20:57Z</time>
      </trkpt>
      <trkpt lat="45.19062" lon="5.66379">
        <ele>476</ele>
        <time>2011-06-15T07:20:58Z</time>
      </trkpt>
      <trkpt lat="45.19061" lon="5.66385">
        <ele>475</ele>
        <time>2011-06-15T07:20:59Z</time>
      </trkpt>
      <trkpt lat="45.19057" lon="5.66393">
        <ele>476</ele>
        <time>2011-06-15T07:21:00Z</time>
      </trkpt>
      <trkpt lat="45.19054" lon="5.66399">
        <ele>475</ele>
        <time>2011-06-15T07:21:01Z</time>
      </trkpt>
      <trkpt lat="45.19052" lon="5.66412">
        <ele>475</ele>
        <time>2011-06-15T07:21:03Z</time>
      </trkpt>
      <trkpt lat="45.19053" lon="5.66419">
        <ele>475</ele>
        <time>2011-06-15T07:21:04Z</time>
      </trkpt>
      <trkpt lat="45.19054" lon="5.66428">
        <ele>474</ele>
        <time>2011-06-15T07:21:05Z</time>
      </trkpt>
      <trkpt lat="45.19055" lon="5.66436">
        <ele>474</ele>
        <time>2011-06-15T07:21:06Z</time>
      </trkpt>
      <trkpt lat="45.19056" lon="5.66444">
        <ele>474</ele>
        <time>2011-06-15T07:21:07Z</time>
      </trkpt>
      <trkpt lat="45.19059" lon="5.66454">
        <ele>472</ele>
        <time>2011-06-15T07:21:09Z</time>
      </trkpt>
      <trkpt lat="45.19061" lon="5.66463">
        <ele>472</ele>
        <time>2011-06-15T07:21:11Z</time>
      </trkpt>
      <trkpt lat="45.19063" lon="5.66471">
        <ele>471</ele>
        <time>2011-06-15T07:21:12Z</time>
      </trkpt>
      <trkpt lat="45.19064" lon="5.66482">
        <ele>471</ele>
        <time>2011-06-15T07:21:14Z</time>
      </trkpt>
      <trkpt lat="45.19066" lon="5.6649">
        <ele>471</ele>
        <time>2011-06-15T07:21:15Z</time>
      </trkpt>
      <trkpt lat="45.19068" lon="5.665">
        <ele>470</ele>
        <time>2011-06-15T07:21:17Z</time>
      </trkpt>
      <trkpt lat="45.19073" lon="5.66508">
        <ele>470</ele>
        <time>2011-06-15T07:21:19Z</time>
      </trkpt>
      <trkpt lat="45.19075" lon="5.66514">
        <ele>470</ele>
        <time>2011-06-15T07:21:20Z</time>
      </trkpt>
      <trkpt lat="45.19079" lon="5.66518">
        <ele>470</ele>
        <time>2011-06-15T07:21:21Z</time>
      </trkpt>
      <trkpt lat="45.19086" lon="5.66526">
        <ele>469</ele>
        <time>2011-06-15T07:21:23Z</time>
      </trkpt>
      <trkpt lat="45.19094" lon="5.66531">
        <ele>468</ele>
        <time>2011-06-15T07:21:25Z</time>
      </trkpt>
      <trkpt lat="45.19103" lon="5.66538">
        <ele>466</ele>
        <time>2011-06-15T07:21:27Z</time>
      </trkpt>
      <trkpt lat="45.19108" lon="5.6654">
        <ele>464</ele>
        <time>2011-06-15T07:21:28Z</time>
      </trkpt>
      <trkpt lat="45.19113" lon="5.66542">
        <ele>463</ele>
        <time>2011-06-15T07:21:29Z</time>
      </trkpt>
      <trkpt lat="45.19119" lon="5.66549">
        <ele>460</ele>
        <time>2011-06-15T07:21:31Z</time>
      </trkpt>
      <trkpt lat="45.19124" lon="5.66551">
        <ele>459</ele>
        <time>2011-06-15T07:21:32Z</time>
      </trkpt>
      <trkpt lat="45.19128" lon="5.66554">
        <ele>457</ele>
        <time>2011-06-15T07:21:33Z</time>
      </trkpt>
      <trkpt lat="45.19134" lon="5.66561">
        <ele>455</ele>
        <time>2011-06-15T07:21:35Z</time>
      </trkpt>
      <trkpt lat="45.1914" lon="5.66569">
        <ele>452</ele>
        <time>2011-06-15T07:21:37Z</time>
      </trkpt>
      <trkpt lat="45.19144" lon="5.66574">
        <ele>450</ele>
        <time>2011-06-15T07:21:38Z</time>
      </trkpt>
      <trkpt lat="45.1915" lon="5.66582">
        <ele>449</ele>
        <time>2011-06-15T07:21:40Z</time>
      </trkpt>
      <trkpt lat="45.19156" lon="5.66588">
        <ele>445</ele>
        <time>2011-06-15T07:21:42Z</time>
      </trkpt>
      <trkpt lat="45.19162" lon="5.66594">
        <ele>443</ele>
        <time>2011-06-15T07:21:44Z</time>
      </trkpt>
      <trkpt lat="45.19168" lon="5.66599">
        <ele>443</ele>
        <time>2011-06-15T07:21:46Z</time>
      </trkpt>
      <trkpt lat="45.19177" lon="5.66605">
        <ele>441</ele>
        <time>2011-06-15T07:21:49Z</time>
      </trkpt>
      <trkpt lat="45.1918" lon="5.66611">
        <ele>440</ele>
        <time>2011-06-15T07:21:52Z</time>
      </trkpt>
      <trkpt lat="45.19178" lon="5.66619">
        <ele>439</ele>
        <time>2011-06-15T07:21:55Z</time>
      </trkpt>
      <trkpt lat="45.19175" lon="5.66628">
        <ele>438</ele>
        <time>2011-06-15T07:21:57Z</time>
      </trkpt>
      <trkpt lat="45.19172" lon="5.66635">
        <ele>437</ele>
        <time>2011-06-15T07:21:59Z</time>
      </trkpt>
      <trkpt lat="45.1917" lon="5.66642">
        <ele>435</ele>
        <time>2011-06-15T07:22:01Z</time>
      </trkpt>
      <trkpt lat="45.19164" lon="5.66648">
        <ele>434</ele>
        <time>2011-06-15T07:22:03Z</time>
      </trkpt>
      <trkpt lat="45.1916" lon="5.66655">
        <ele>434</ele>
        <time>2011-06-15T07:22:05Z</time>
      </trkpt>
      <trkpt lat="45.19158" lon="5.66662">
        <ele>434</ele>
        <time>2011-06-15T07:22:07Z</time>
      </trkpt>
      <trkpt lat="45.19156" lon="5.66669">
        <ele>434</ele>
        <time>2011-06-15T07:22:09Z</time>
      </trkpt>
      <trkpt lat="45.19152" lon="5.66679">
        <ele>434</ele>
        <time>2011-06-15T07:22:11Z</time>
      </trkpt>
      <trkpt lat="45.1915" lon="5.66686">
        <ele>433</ele>
        <time>2011-06-15T07:22:13Z</time>
      </trkpt>
      <trkpt lat="45.19148" lon="5.66694">
        <ele>432</ele>
        <time>2011-06-15T07:22:15Z</time>
      </trkpt>
      <trkpt lat="45.19148" lon="5.66704">
        <ele>430</ele>
        <time>2011-06-15T07:22:17Z</time>
      </trkpt>
      <trkpt lat="45.19146" lon="5.66713">
        <ele>429</ele>
        <time>2011-06-15T07:22:19Z</time>
      </trkpt>
      <trkpt lat="45.19147" lon="5.66726">
        <ele>428</ele>
        <time>2011-06-15T07:22:21Z</time>
      </trkpt>
      <trkpt lat="45.19148" lon="5.66733">
        <ele>426</ele>
        <time>2011-06-15T07:22:22Z</time>
      </trkpt>
      <trkpt lat="45.19149" lon="5.66742">
        <ele>426</ele>
        <time>2011-06-15T07:22:24Z</time>
      </trkpt>
      <trkpt lat="45.19155" lon="5.66748">
        <ele>424</ele>
        <time>2011-06-15T07:22:26Z</time>
      </trkpt>
      <trkpt lat="45.19159" lon="5.6675">
        <ele>423</ele>
        <time>2011-06-15T07:22:27Z</time>
      </trkpt>
      <trkpt lat="45.19164" lon="5.66754">
        <ele>422</ele>
        <time>2011-06-15T07:22:28Z</time>
      </trkpt>
      <trkpt lat="45.19167" lon="5.6676">
        <ele>420</ele>
        <time>2011-06-15T07:22:29Z</time>
      </trkpt>
      <trkpt lat="45.19172" lon="5.66764">
        <ele>417</ele>
        <time>2011-06-15T07:22:30Z</time>
      </trkpt>
      <trkpt lat="45.19176" lon="5.66772">
        <ele>409</ele>
        <time>2011-06-15T07:22:32Z</time>
      </trkpt>
      <trkpt lat="45.19182" lon="5.66776">
        <ele>404</ele>
        <time>2011-06-15T07:22:34Z</time>
      </trkpt>
      <trkpt lat="45.19186" lon="5.6678">
        <ele>402</ele>
        <time>2011-06-15T07:22:36Z</time>
      </trkpt>
      <trkpt lat="45.19191" lon="5.66784">
        <ele>399</ele>
        <time>2011-06-15T07:22:39Z</time>
      </trkpt>
      <trkpt lat="45.19194" lon="5.66792">
        <ele>396</ele>
        <time>2011-06-15T07:22:43Z</time>
      </trkpt>
      <trkpt lat="45.19196" lon="5.66797">
        <ele>395</ele>
        <time>2011-06-15T07:22:46Z</time>
      </trkpt>
      <trkpt lat="45.192" lon="5.66802">
        <ele>390</ele>
        <time>2011-06-15T07:22:52Z</time>
      </trkpt>
      <trkpt lat="45.19208" lon="5.66795">
        <ele>382</ele>
        <time>2011-06-15T07:23:17Z</time>
      </trkpt>
      <trkpt lat="45.19213" lon="5.66793">
        <ele>379</ele>
        <time>2011-06-15T07:23:20Z</time>
      </trkpt>
      <trkpt lat="45.19219" lon="5.66788">
        <ele>378</ele>
        <time>2011-06-15T07:23:22Z</time>
      </trkpt>
      <trkpt lat="45.19225" lon="5.66783">
        <ele>375</ele>
        <time>2011-06-15T07:23:24Z</time>
      </trkpt>
      <trkpt lat="45.19229" lon="5.66777">
        <ele>374</ele>
        <time>2011-06-15T07:23:28Z</time>
      </trkpt>
      <trkpt lat="45.19233" lon="5.66772">
        <ele>374</ele>
        <time>2011-06-15T07:23:30Z</time>
      </trkpt>
      <trkpt lat="45.19237" lon="5.66766">
        <ele>373</ele>
        <time>2011-06-15T07:23:33Z</time>
      </trkpt>
      <trkpt lat="45.19243" lon="5.6676">
        <ele>372</ele>
        <time>2011-06-15T07:23:36Z</time>
      </trkpt>
      <trkpt lat="45.19248" lon="5.66755">
        <ele>372</ele>
        <time>2011-06-15T07:23:38Z</time>
      </trkpt>
      <trkpt lat="45.19251" lon="5.6675">
        <ele>372</ele>
        <time>2011-06-15T07:23:39Z</time>
      </trkpt>
      <trkpt lat="45.19254" lon="5.66745">
        <ele>371</ele>
        <time>2011-06-15T07:23:41Z</time>
      </trkpt>
      <trkpt lat="45.19256" lon="5.66739">
        <ele>371</ele>
        <time>2011-06-15T07:23:43Z</time>
      </trkpt>
      <trkpt lat="45.19303" lon="5.66696">
        <ele>370</ele>
        <time>2011-06-15T07:24:25Z</time>
      </trkpt>
      <trkpt lat="45.19305" lon="5.66689">
        <ele>369</ele>
        <time>2011-06-15T07:24:28Z</time>
      </trkpt>
      <trkpt lat="45.19311" lon="5.6669">
        <ele>365</ele>
        <time>2011-06-15T07:24:33Z</time>
      </trkpt>
      <trkpt lat="45.19318" lon="5.66687">
        <ele>363</ele>
        <time>2011-06-15T07:24:36Z</time>
      </trkpt>
      <trkpt lat="45.19311" lon="5.66688">
        <ele>360</ele>
        <time>2011-06-15T07:24:38Z</time>
      </trkpt>
      <trkpt lat="45.19304" lon="5.66685">
        <ele>355</ele>
        <time>2011-06-15T07:24:43Z</time>
      </trkpt>
      <trkpt lat="45.1931" lon="5.66683">
        <ele>355</ele>
        <time>2011-06-15T07:24:45Z</time>
      </trkpt>
      <trkpt lat="45.19317" lon="5.66682">
        <ele>354</ele>
        <time>2011-06-15T07:24:49Z</time>
      </trkpt>
      <trkpt lat="45.19325" lon="5.66679">
        <ele>354</ele>
        <time>2011-06-15T07:24:50Z</time>
      </trkpt>
      <trkpt lat="45.19333" lon="5.66682">
        <ele>354</ele>
        <time>2011-06-15T07:24:52Z</time>
      </trkpt>
      <trkpt lat="45.19339" lon="5.6668">
        <ele>353</ele>
        <time>2011-06-15T07:24:54Z</time>
      </trkpt>
      <trkpt lat="45.1935" lon="5.66676">
        <ele>352</ele>
        <time>2011-06-15T07:24:56Z</time>
      </trkpt>
      <trkpt lat="45.19357" lon="5.66678">
        <ele>352</ele>
        <time>2011-06-15T07:24:58Z</time>
      </trkpt>
      <trkpt lat="45.19364" lon="5.66685">
        <ele>351</ele>
        <time>2011-06-15T07:25:01Z</time>
      </trkpt>
      <trkpt lat="45.19373" lon="5.66689">
        <ele>350</ele>
        <time>2011-06-15T07:25:03Z</time>
      </trkpt>
      <trkpt lat="45.19382" lon="5.66691">
        <ele>349</ele>
        <time>2011-06-15T07:25:05Z</time>
      </trkpt>
      <trkpt lat="45.19387" lon="5.66694">
        <ele>349</ele>
        <time>2011-06-15T07:25:06Z</time>
      </trkpt>
      <trkpt lat="45.19391" lon="5.66699">
        <ele>350</ele>
        <time>2011-06-15T07:25:07Z</time>
      </trkpt>
      <trkpt lat="45.19397" lon="5.66702">
        <ele>349</ele>
        <time>2011-06-15T07:25:09Z</time>
      </trkpt>
      <trkpt lat="45.19401" lon="5.66707">
        <ele>348</ele>
        <time>2011-06-15T07:25:10Z</time>
      </trkpt>
      <trkpt lat="45.1941" lon="5.66707">
        <ele>348</ele>
        <time>2011-06-15T07:25:12Z</time>
      </trkpt>
      <trkpt lat="45.19415" lon="5.66708">
        <ele>348</ele>
        <time>2011-06-15T07:25:14Z</time>
      </trkpt>
      <trkpt lat="45.19422" lon="5.66708">
        <ele>346</ele>
        <time>2011-06-15T07:25:17Z</time>
      </trkpt>
      <trkpt lat="45.19426" lon="5.66704">
        <ele>345</ele>
        <time>2011-06-15T07:25:18Z</time>
      </trkpt>
      <trkpt lat="45.19432" lon="5.66699">
        <ele>344</ele>
        <time>2011-06-15T07:25:19Z</time>
      </trkpt>
      <trkpt lat="45.19437" lon="5.66696">
        <ele>343</ele>
        <time>2011-06-15T07:25:20Z</time>
      </trkpt>
      <trkpt lat="45.19443" lon="5.66696">
        <ele>341</ele>
        <time>2011-06-15T07:25:21Z</time>
      </trkpt>
      <trkpt lat="45.19449" lon="5.66702">
        <ele>340</ele>
        <time>2011-06-15T07:25:22Z</time>
      </trkpt>
      <trkpt lat="45.19457" lon="5.66705">
        <ele>340</ele>
        <time>2011-06-15T07:25:23Z</time>
      </trkpt>
      <trkpt lat="45.19463" lon="5.6671">
        <ele>339</ele>
        <time>2011-06-15T07:25:24Z</time>
      </trkpt>
      <trkpt lat="45.19469" lon="5.66715">
        <ele>334</ele>
        <time>2011-06-15T07:25:25Z</time>
      </trkpt>
      <trkpt lat="45.19472" lon="5.6672">
        <ele>332</ele>
        <time>2011-06-15T07:25:26Z</time>
      </trkpt>
      <trkpt lat="45.19476" lon="5.66727">
        <ele>330</ele>
        <time>2011-06-15T07:25:27Z</time>
      </trkpt>
      <trkpt lat="45.19481" lon="5.66734">
        <ele>330</ele>
        <time>2011-06-15T07:25:28Z</time>
      </trkpt>
      <trkpt lat="45.19484" lon="5.66738">
        <ele>328</ele>
        <time>2011-06-15T07:25:29Z</time>
      </trkpt>
      <trkpt lat="45.19489" lon="5.66744">
        <ele>328</ele>
        <time>2011-06-15T07:25:30Z</time>
      </trkpt>
      <trkpt lat="45.19494" lon="5.66751">
        <ele>328</ele>
        <time>2011-06-15T07:25:31Z</time>
      </trkpt>
      <trkpt lat="45.19498" lon="5.66757">
        <ele>327</ele>
        <time>2011-06-15T07:25:32Z</time>
      </trkpt>
      <trkpt lat="45.195" lon="5.66765">
        <ele>327</ele>
        <time>2011-06-15T07:25:33Z</time>
      </trkpt>
      <trkpt lat="45.19491" lon="5.66773">
        <ele>324</ele>
        <time>2011-06-15T07:25:34Z</time>
      </trkpt>
      <trkpt lat="45.19487" lon="5.6678">
        <ele>323</ele>
        <time>2011-06-15T07:25:35Z</time>
      </trkpt>
      <trkpt lat="45.1949" lon="5.66787">
        <ele>322</ele>
        <time>2011-06-15T07:25:36Z</time>
      </trkpt>
      <trkpt lat="45.19495" lon="5.66792">
        <ele>320</ele>
        <time>2011-06-15T07:25:37Z</time>
      </trkpt>
      <trkpt lat="45.195" lon="5.66798">
        <ele>318</ele>
        <time>2011-06-15T07:25:38Z</time>
      </trkpt>
      <trkpt lat="45.19503" lon="5.66807">
        <ele>318</ele>
        <time>2011-06-15T07:25:39Z</time>
      </trkpt>
      <trkpt lat="45.19509" lon="5.66818">
        <ele>317</ele>
        <time>2011-06-15T07:25:40Z</time>
      </trkpt>
      <trkpt lat="45.19512" lon="5.66826">
        <ele>316</ele>
        <time>2011-06-15T07:25:41Z</time>
      </trkpt>
      <trkpt lat="45.19518" lon="5.66831">
        <ele>314</ele>
        <time>2011-06-15T07:25:42Z</time>
      </trkpt>
      <trkpt lat="45.19524" lon="5.66833">
        <ele>311</ele>
        <time>2011-06-15T07:25:43Z</time>
      </trkpt>
      <trkpt lat="45.19531" lon="5.66835">
        <ele>308</ele>
        <time>2011-06-15T07:25:44Z</time>
      </trkpt>
      <trkpt lat="45.19533" lon="5.66842">
        <ele>306</ele>
        <time>2011-06-15T07:25:45Z</time>
      </trkpt>
      <trkpt lat="45.19538" lon="5.66849">
        <ele>304</ele>
        <time>2011-06-15T07:25:46Z</time>
      </trkpt>
      <trkpt lat="45.19541" lon="5.66856">
        <ele>303</ele>
        <time>2011-06-15T07:25:47Z</time>
      </trkpt>
      <trkpt lat="45.19545" lon="5.66864">
        <ele>302</ele>
        <time>2011-06-15T07:25:48Z</time>
      </trkpt>
      <trkpt lat="45.19546" lon="5.66873">
        <ele>301</ele>
        <time>2011-06-15T07:25:49Z</time>
      </trkpt>
      <trkpt lat="45.19549" lon="5.66881">
        <ele>300</ele>
        <time>2011-06-15T07:25:50Z</time>
      </trkpt>
      <trkpt lat="45.19553" lon="5.66888">
        <ele>299</ele>
        <time>2011-06-15T07:25:51Z</time>
      </trkpt>
    </trkseg>
  </trk>
</gpx>